Observation data for Sterling City on 06/14/2019      Previous  Date  Next       Current Mesonet Observations  Soil Data  Daily Summary Page  Observations in Plain Language
KSC1 140500Z 17006KT 24/16 A3006 RMK A01 T02390161  RH  062%=      5-min Rain = 0
KSC1 140501Z 17007KT 24/16 A3006 RMK A01 T02390161  RH  062%=      5-min Rain = 0
KSC1 140502Z 17009KT 24/16 A3006 RMK A01 T02390162  RH  062%=      5-min Rain = 0
KSC1 140503Z 16008KT 24/16 A3006 RMK A01 T02390161  RH  062%=      5-min Rain = 0
KSC1 140504Z 16008KT 24/16 A3006 RMK A01 T02390162  RH  062%=      5-min Rain = 0
KSC1 140505Z 17005KT 24/16 A3006 RMK A01 T02390162  RH  062%=      5-min Rain = 0
KSC1 140506Z 16005KT 24/16 A3006 RMK A01 T02390162  RH  062%=      5-min Rain = 0
KSC1 140507Z 17006KT 24/16 A3006 RMK A01 T02380162  RH  062%=      5-min Rain = 0
KSC1 140508Z 17006KT 24/16 A3006 RMK A01 T02370162  RH  063%=      5-min Rain = 0
KSC1 140509Z 17008KT 24/16 A3006 RMK A01 T02370161  RH  063%=      5-min Rain = 0
KSC1 140510Z 17006KT 24/16 A3006 RMK A01 T02360161  RH  063%=      5-min Rain = 0
KSC1 140511Z 17006KT 24/16 A3006 RMK A01 T02360161  RH  063%=      5-min Rain = 0
KSC1 140512Z 17007KT 24/16 A3006 RMK A01 T02360161  RH  063%=      5-min Rain = 0
KSC1 140513Z 17008KT 24/16 A3006 RMK A01 T02360161  RH  063%=      5-min Rain = 0
KSC1 140514Z 16006KT 24/16 A3006 RMK A01 T02360161  RH  063%=      5-min Rain = 0
KSC1 140515Z 17006KT 24/16 A3006 RMK A01 T02370161  RH  063%=      5-min Rain = 0
KSC1 140516Z 17006KT 24/16 A3006 RMK A01 T02360161  RH  063%=      5-min Rain = 0
KSC1 140517Z 16008KT 24/16 A3006 RMK A01 T02360161  RH  063%=      5-min Rain = 0
KSC1 140518Z 17008KT 24/16 A3006 RMK A01 T02360161  RH  063%=      5-min Rain = 0
KSC1 140519Z 16007KT 24/16 A3006 RMK A01 T02370161  RH  062%=      5-min Rain = 0
KSC1 140520Z 16008KT 24/16 A3006 RMK A01 T02370160  RH  062%=      5-min Rain = 0
KSC1 140521Z 17007KT 24/16 A3007 RMK A01 T02370160  RH  062%=      5-min Rain = 0
KSC1 140522Z 16005KT 24/16 A3006 RMK A01 T02370160  RH  062%=      5-min Rain = 0
KSC1 140523Z 16006KT 24/16 A3006 RMK A01 T02370160  RH  062%=      5-min Rain = 0
KSC1 140524Z 16006KT 24/16 A3006 RMK A01 T02370160  RH  062%=      5-min Rain = 0
KSC1 140525Z 16008KT 24/16 A3006 RMK A01 T02360160  RH  062%=      5-min Rain = 0
KSC1 140526Z 16007KT 24/16 A3006 RMK A01 T02370160  RH  062%=      5-min Rain = 0
KSC1 140527Z 16008KT 24/16 A3006 RMK A01 T02360160  RH  062%=      5-min Rain = 0
KSC1 140528Z 16007KT 24/16 A3006 RMK A01 T02360160  RH  062%=      5-min Rain = 0
KSC1 140529Z 16004KT 24/16 A3006 RMK A01 T02370160  RH  062%=      5-min Rain = 0
KSC1 140530Z 16005KT 24/16 A3006 RMK A01 T02360160  RH  062%=      5-min Rain = 0
KSC1 140531Z 16008KT 24/16 A3006 RMK A01 T02360160  RH  062%=      5-min Rain = 0
KSC1 140532Z 16008KT 24/16 A3006 RMK A01 T02360160  RH  062%=      5-min Rain = 0
KSC1 140533Z 16006KT 24/16 A3006 RMK A01 T02360160  RH  062%=      5-min Rain = 0
KSC1 140534Z 16006KT 24/16 A3006 RMK A01 T02360160  RH  062%=      5-min Rain = 0
KSC1 140535Z 16006KT 24/16 A3006 RMK A01 T02360160  RH  062%=      5-min Rain = 0
KSC1 140536Z 15007KT 24/16 A3005 RMK A01 T02360160  RH  062%=      5-min Rain = 0
KSC1 140537Z 15006KT 24/16 A3005 RMK A01 T02360160  RH  062%=      5-min Rain = 0
KSC1 140538Z 15007KT 24/16 A3005 RMK A01 T02360160  RH  062%=      5-min Rain = 0
KSC1 140539Z 15006KT 24/16 A3005 RMK A01 T02360160  RH  062%=      5-min Rain = 0
KSC1 140540Z 15007KT 24/16 A3005 RMK A01 T02360160  RH  063%=      5-min Rain = 0
KSC1 140541Z 15008KT 24/16 A3005 RMK A01 T02360160  RH  063%=      5-min Rain = 0
KSC1 140542Z 15007KT 24/16 A3005 RMK A01 T02360160  RH  063%=      5-min Rain = 0
KSC1 140543Z 15006KT 24/16 A3005 RMK A01 T02350160  RH  063%=      5-min Rain = 0
KSC1 140544Z 15006KT 24/16 A3005 RMK A01 T02350160  RH  063%=      5-min Rain = 0
KSC1 140545Z 15006KT 24/16 A3005 RMK A01 T02350160  RH  063%=      5-min Rain = 0
KSC1 140546Z 15006KT 23/16 A3005 RMK A01 T02340160  RH  063%=      5-min Rain = 0
KSC1 140547Z 16007KT 23/16 A3005 RMK A01 T02340160  RH  063%=      5-min Rain = 0
KSC1 140548Z 15006KT 23/16 A3005 RMK A01 T02340160  RH  063%=      5-min Rain = 0
KSC1 140549Z 15007KT 23/16 A3005 RMK A01 T02330160  RH  063%=      5-min Rain = 0
KSC1 140550Z 15006KT 23/16 A3004 RMK A01 T02330160  RH  063%=      5-min Rain = 0
KSC1 140551Z 15007KT 23/16 A3004 RMK A01 T02330160  RH  063%=      5-min Rain = 0
KSC1 140552Z 15007KT 23/16 A3004 RMK A01 T02330160  RH  064%=      5-min Rain = 0
KSC1 140553Z 15006KT 23/16 A3004 RMK A01 T02330160  RH  064%=      5-min Rain = 0
KSC1 140554Z 16006KT 23/16 A3004 RMK A01 T02330161  RH  064%=      5-min Rain = 0
KSC1 140555Z 15006KT 23/16 A3004 RMK A01 T02320160  RH  064%=      5-min Rain = 0
KSC1 140556Z 16008KT 23/16 A3004 RMK A01 T02320160  RH  064%=      5-min Rain = 0
KSC1 140557Z 16006KT 23/16 A3004 RMK A01 T02320160  RH  064%=      5-min Rain = 0
KSC1 140558Z 15005KT 23/16 A3004 RMK A01 T02320160  RH  064%=      5-min Rain = 0
KSC1 140559Z 15008KT 23/16 A3004 RMK A01 T02320160  RH  064%=      5-min Rain = 0
KSC1 140600Z 16006KT 23/16 A3004 RMK A01 T02320160  RH  064%=      5-min Rain = 0
KSC1 140601Z 16007KT 23/16 A3004 RMK A01 T02320161  RH  064%=      5-min Rain = 0
KSC1 140602Z 15006KT 23/16 A3004 RMK A01 T02320160  RH  064%=      5-min Rain = 0
KSC1 140603Z 16007KT 23/16 A3004 RMK A01 T02320160  RH  064%=      5-min Rain = 0
KSC1 140604Z 16008KT 23/16 A3004 RMK A01 T02310160  RH  064%=      5-min Rain = 0
KSC1 140605Z 15007KT 23/16 A3004 RMK A01 T02320160  RH  064%=      5-min Rain = 0
KSC1 140606Z 16006KT 23/16 A3004 RMK A01 T02320160  RH  064%=      5-min Rain = 0
KSC1 140607Z 16007KT 23/16 A3004 RMK A01 T02320160  RH  064%=      5-min Rain = 0
KSC1 140608Z 16008KT 23/16 A3004 RMK A01 T02320160  RH  064%=      5-min Rain = 0
KSC1 140609Z 16008KT 23/16 A3004 RMK A01 T02320160  RH  064%=      5-min Rain = 0
KSC1 140610Z 16008KT 23/16 A3004 RMK A01 T02320160  RH  064%=      5-min Rain = 0
KSC1 140611Z 16008KT 23/16 A3004 RMK A01 T02330160  RH  064%=      5-min Rain = 0
KSC1 140612Z 16008KT 23/16 A3004 RMK A01 T02330160  RH  064%=      5-min Rain = 0
KSC1 140613Z 16007KT 23/16 A3004 RMK A01 T02330160  RH  064%=      5-min Rain = 0
KSC1 140614Z 16006KT 23/16 A3004 RMK A01 T02330160  RH  064%=      5-min Rain = 0
KSC1 140615Z 16008KT 23/16 A3004 RMK A01 T02320160  RH  064%=      5-min Rain = 0
KSC1 140616Z 16007KT 23/16 A3004 RMK A01 T02320160  RH  064%=      5-min Rain = 0
KSC1 140617Z 16007KT 23/16 A3004 RMK A01 T02320160  RH  064%=      5-min Rain = 0
KSC1 140618Z 17007KT 23/16 A3004 RMK A01 T02320160  RH  064%=      5-min Rain = 0
KSC1 140619Z 16007KT 23/16 A3004 RMK A01 T02320160  RH  064%=      5-min Rain = 0
KSC1 140620Z 17006KT 23/16 A3004 RMK A01 T02320160  RH  064%=      5-min Rain = 0
KSC1 140621Z 17008KT 23/16 A3004 RMK A01 T02320160  RH  064%=      5-min Rain = 0
KSC1 140622Z 17008KT 23/16 A3004 RMK A01 T02320160  RH  064%=      5-min Rain = 0
KSC1 140623Z 17006KT 23/16 A3005 RMK A01 T02320160  RH  064%=      5-min Rain = 0
KSC1 140624Z 16006KT 23/16 A3005 RMK A01 T02320160  RH  064%=      5-min Rain = 0
KSC1 140625Z 16006KT 23/16 A3005 RMK A01 T02310160  RH  064%=      5-min Rain = 0
KSC1 140626Z 17007KT 23/16 A3005 RMK A01 T02310160  RH  064%=      5-min Rain = 0
KSC1 140627Z 17007KT 23/16 A3005 RMK A01 T02310160  RH  064%=      5-min Rain = 0
KSC1 140628Z 16007KT 23/16 A3005 RMK A01 T02310160  RH  064%=      5-min Rain = 0
KSC1 140629Z 16007KT 23/16 A3005 RMK A01 T02310160  RH  064%=      5-min Rain = 0
KSC1 140630Z 16006KT 23/16 A3005 RMK A01 T02310160  RH  064%=      5-min Rain = 0
KSC1 140631Z 16006KT 23/16 A3005 RMK A01 T02310160  RH  064%=      5-min Rain = 0
KSC1 140632Z 16007KT 23/16 A3005 RMK A01 T02300160  RH  065%=      5-min Rain = 0
KSC1 140633Z 17006KT 23/16 A3005 RMK A01 T02300160  RH  065%=      5-min Rain = 0
KSC1 140634Z 16007KT 23/16 A3005 RMK A01 T02300160  RH  065%=      5-min Rain = 0
KSC1 140635Z 16007KT 23/16 A3005 RMK A01 T02300160  RH  065%=      5-min Rain = 0
KSC1 140636Z 16006KT 23/16 A3005 RMK A01 T02300160  RH  065%=      5-min Rain = 0
KSC1 140637Z 16005KT 23/16 A3005 RMK A01 T02300160  RH  065%=      5-min Rain = 0
KSC1 140638Z 16006KT 23/16 A3005 RMK A01 T02300160  RH  065%=      5-min Rain = 0
KSC1 140639Z 15005KT 23/16 A3005 RMK A01 T02290160  RH  065%=      5-min Rain = 0
KSC1 140640Z 16004KT 23/16 A3005 RMK A01 T02290160  RH  065%=      5-min Rain = 0
KSC1 140641Z 15006KT 23/16 A3005 RMK A01 T02290160  RH  065%=      5-min Rain = 0
KSC1 140642Z 15006KT 23/16 A3005 RMK A01 T02280160  RH  065%=      5-min Rain = 0
KSC1 140643Z 15005KT 23/16 A3005 RMK A01 T02280160  RH  065%=      5-min Rain = 0
KSC1 140644Z 16004KT 23/16 A3005 RMK A01 T02280160  RH  065%=      5-min Rain = 0
KSC1 140645Z 15006KT 23/16 A3005 RMK A01 T02280160  RH  065%=      5-min Rain = 0
KSC1 140646Z 16006KT 23/16 A3005 RMK A01 T02280160  RH  065%=      5-min Rain = 0
KSC1 140647Z 16006KT 23/16 A3005 RMK A01 T02280160  RH  065%=      5-min Rain = 0
KSC1 140648Z 16005KT 23/16 A3005 RMK A01 T02280160  RH  065%=      5-min Rain = 0
KSC1 140649Z 16004KT 23/16 A3005 RMK A01 T02280160  RH  066%=      5-min Rain = 0
KSC1 140650Z 16004KT 23/16 A3005 RMK A01 T02270160  RH  066%=      5-min Rain = 0
KSC1 140651Z 16005KT 23/16 A3005 RMK A01 T02260160  RH  066%=      5-min Rain = 0
KSC1 140652Z 16005KT 23/16 A3005 RMK A01 T02260160  RH  066%=      5-min Rain = 0
KSC1 140653Z 16005KT 23/16 A3005 RMK A01 T02250160  RH  066%=      5-min Rain = 0
KSC1 140654Z 15005KT 23/16 A3005 RMK A01 T02260160  RH  066%=      5-min Rain = 0
KSC1 140655Z 15006KT 23/16 A3005 RMK A01 T02250160  RH  066%=      5-min Rain = 0
KSC1 140656Z 15005KT 23/16 A3005 RMK A01 T02250160  RH  066%=      5-min Rain = 0
KSC1 140657Z 15006KT 23/16 A3005 RMK A01 T02260160  RH  066%=      5-min Rain = 0
KSC1 140658Z 15006KT 23/16 A3005 RMK A01 T02250160  RH  066%=      5-min Rain = 0
KSC1 140659Z 15006KT 23/16 A3005 RMK A01 T02250160  RH  066%=      5-min Rain = 0
KSC1 140700Z 15007KT 23/16 A3005 RMK A01 T02250160  RH  066%=      5-min Rain = 0
KSC1 140701Z 15007KT 23/16 A3005 RMK A01 T02250159  RH  066%=      5-min Rain = 0
KSC1 140702Z 15005KT 23/16 A3005 RMK A01 T02250159  RH  066%=      5-min Rain = 0
KSC1 140703Z 15006KT 23/16 A3005 RMK A01 T02250160  RH  066%=      5-min Rain = 0
KSC1 140704Z 15006KT 23/16 A3005 RMK A01 T02250160  RH  066%=      5-min Rain = 0
KSC1 140705Z 16008KT 23/16 A3005 RMK A01 T02250160  RH  066%=      5-min Rain = 0
KSC1 140706Z 16009KT 23/16 A3004 RMK A01 T02250159  RH  066%=      5-min Rain = 0
KSC1 140707Z 15007KT 23/16 A3004 RMK A01 T02260159  RH  066%=      5-min Rain = 0
KSC1 140708Z 15008KT 23/16 A3004 RMK A01 T02260159  RH  066%=      5-min Rain = 0
KSC1 140709Z 16007KT 23/16 A3004 RMK A01 T02260159  RH  066%=      5-min Rain = 0
KSC1 140710Z 15008KT 23/16 A3004 RMK A01 T02260159  RH  066%=      5-min Rain = 0
KSC1 140711Z 16009KT 23/16 A3004 RMK A01 T02270159  RH  066%=      5-min Rain = 0
KSC1 140712Z 16009KT 23/16 A3004 RMK A01 T02270159  RH  065%=      5-min Rain = 0
KSC1 140713Z 16007KT 23/16 A3004 RMK A01 T02270159  RH  065%=      5-min Rain = 0
KSC1 140714Z 16008KT 23/16 A3004 RMK A01 T02270159  RH  065%=      5-min Rain = 0
KSC1 140715Z 16007KT 23/16 A3004 RMK A01 T02270159  RH  065%=      5-min Rain = 0
KSC1 140716Z 17009KT 23/16 A3004 RMK A01 T02270159  RH  065%=      5-min Rain = 0
KSC1 140717Z 16009KT 23/16 A3004 RMK A01 T02270159  RH  065%=      5-min Rain = 0
KSC1 140718Z 16008KT 23/16 A3004 RMK A01 T02280158  RH  065%=      5-min Rain = 0
KSC1 140719Z 15008KT 23/16 A3004 RMK A01 T02280158  RH  065%=      5-min Rain = 0
KSC1 140720Z 16007KT 23/16 A3004 RMK A01 T02280158  RH  065%=      5-min Rain = 0
KSC1 140721Z 16008KT 23/16 A3004 RMK A01 T02280159  RH  065%=      5-min Rain = 0
KSC1 140722Z 16007KT 23/16 A3004 RMK A01 T02280159  RH  065%=      5-min Rain = 0
KSC1 140723Z 16007KT 23/16 A3004 RMK A01 T02270159  RH  065%=      5-min Rain = 0
KSC1 140724Z 16007KT 23/16 A3004 RMK A01 T02270159  RH  065%=      5-min Rain = 0
KSC1 140725Z 16008KT 23/16 A3004 RMK A01 T02270159  RH  065%=      5-min Rain = 0
KSC1 140726Z 16009KT 23/16 A3004 RMK A01 T02270159  RH  065%=      5-min Rain = 0
KSC1 140727Z 16008G13KT 23/16 A3004 RMK A01 T02270159  RH  065%=      5-min Rain = 0
KSC1 140728Z 16010KT 23/16 A3004 RMK A01 T02270159  RH  065%=      5-min Rain = 0
KSC1 140729Z 16008KT 23/16 A3004 RMK A01 T02270159  RH  065%=      5-min Rain = 0
KSC1 140730Z 16007KT 23/16 A3004 RMK A01 T02270159  RH  065%=      5-min Rain = 0
KSC1 140731Z 15008KT 23/16 A3004 RMK A01 T02270159  RH  065%=      5-min Rain = 0
KSC1 140732Z 16008KT 23/16 A3004 RMK A01 T02270159  RH  065%=      5-min Rain = 0
KSC1 140733Z 16007KT 23/16 A3004 RMK A01 T02270159  RH  065%=      5-min Rain = 0
KSC1 140734Z 16007KT 23/16 A3004 RMK A01 T02270159  RH  066%=      5-min Rain = 0
KSC1 140735Z 16009KT 23/16 A3003 RMK A01 T02260159  RH  066%=      5-min Rain = 0
KSC1 140736Z 16007KT 23/16 A3003 RMK A01 T02260159  RH  066%=      5-min Rain = 0
KSC1 140737Z 17008KT 23/16 A3003 RMK A01 T02260159  RH  066%=      5-min Rain = 0
KSC1 140738Z 16008KT 23/16 A3003 RMK A01 T02250159  RH  066%=      5-min Rain = 0
KSC1 140739Z 17008KT 23/16 A3003 RMK A01 T02250159  RH  066%=      5-min Rain = 0
KSC1 140740Z 16007KT 23/16 A3003 RMK A01 T02250159  RH  066%=      5-min Rain = 0
KSC1 140741Z 16009KT 22/16 A3003 RMK A01 T02240159  RH  067%=      5-min Rain = 0
KSC1 140742Z 17009KT 22/16 A3003 RMK A01 T02240159  RH  067%=      5-min Rain = 0
KSC1 140743Z 17006G11KT 22/16 A3003 RMK A01 T02240159  RH  067%=      5-min Rain = 0
KSC1 140744Z 17007KT 22/16 A3003 RMK A01 T02230159  RH  067%=      5-min Rain = 0
KSC1 140745Z 17009KT 22/16 A3002 RMK A01 T02230159  RH  067%=      5-min Rain = 0
KSC1 140746Z 17008KT 22/16 A3002 RMK A01 T02230159  RH  067%=      5-min Rain = 0
KSC1 140747Z 17007KT 22/16 A3002 RMK A01 T02230160  RH  067%=      5-min Rain = 0
KSC1 140748Z 16009KT 22/16 A3002 RMK A01 T02220159  RH  068%=      5-min Rain = 0
KSC1 140749Z 16008KT 22/16 A3002 RMK A01 T02220160  RH  068%=      5-min Rain = 0
KSC1 140750Z 16011KT 22/16 A3002 RMK A01 T02220160  RH  068%=      5-min Rain = 0
KSC1 140751Z 16011KT 22/16 A3002 RMK A01 T02220160  RH  068%=      5-min Rain = 0
KSC1 140752Z 16010KT 22/16 A3001 RMK A01 T02220160  RH  068%=      5-min Rain = 0
KSC1 140753Z 16011KT 22/16 A3001 RMK A01 T02220160  RH  068%=      5-min Rain = 0
KSC1 140754Z 16011KT 22/16 A3001 RMK A01 T02220160  RH  068%=      5-min Rain = 0
KSC1 140755Z 16011KT 22/16 A3001 RMK A01 T02230160  RH  068%=      5-min Rain = 0
KSC1 140756Z 16011KT 22/16 A3001 RMK A01 T02230160  RH  068%=      5-min Rain = 0
KSC1 140757Z 16010G15KT 22/16 A3001 RMK A01 T02230160  RH  068%=      5-min Rain = 0
KSC1 140758Z 16011KT 22/16 A3001 RMK A01 T02230160  RH  068%=      5-min Rain = 0
KSC1 140759Z 16008KT 22/16 A3001 RMK A01 T02230161  RH  068%=      5-min Rain = 0
KSC1 140800Z 15009KT 22/16 A3001 RMK A01 T02230161  RH  068%=      5-min Rain = 0
KSC1 140801Z 15009KT 22/16 A30 RMK A01 T02220161  RH  068%=      5-min Rain = 0
KSC1 140802Z 15012G17KT 22/16 A30 RMK A01 T02230161  RH  068%=      5-min Rain = 0
KSC1 140803Z 15013KT 22/16 A30 RMK A01 T02230161  RH  068%=      5-min Rain = 0
KSC1 140804Z 16012G17KT 22/16 A30 RMK A01 T02230161  RH  068%=      5-min Rain = 0
KSC1 140805Z 15013KT 22/16 A30 RMK A01 T02230161  RH  068%=      5-min Rain = 0
KSC1 140806Z 15014KT 22/16 A30 RMK A01 T02240161  RH  068%=      5-min Rain = 0
KSC1 140807Z 15011G16KT 22/16 A30 RMK A01 T02240161  RH  068%=      5-min Rain = 0
KSC1 140808Z 15012KT 22/16 A30 RMK A01 T02240161  RH  067%=      5-min Rain = 0
KSC1 140809Z 15012KT 22/16 A30 RMK A01 T02240161  RH  068%=      5-min Rain = 0
KSC1 140810Z 15011G16KT 22/16 A30 RMK A01 T02240161  RH  068%=      5-min Rain = 0
KSC1 140811Z 16012KT 22/16 A30 RMK A01 T02240161  RH  068%=      5-min Rain = 0
KSC1 140812Z 16012KT 22/16 A30 RMK A01 T02240161  RH  068%=      5-min Rain = 0
KSC1 140813Z 16010KT 22/16 A30 RMK A01 T02240161  RH  068%=      5-min Rain = 0
KSC1 140814Z 15012KT 22/16 A3001 RMK A01 T02240161  RH  068%=      5-min Rain = 0
KSC1 140815Z 16009KT 22/16 A3001 RMK A01 T02240162  RH  068%=      5-min Rain = 0
KSC1 140816Z 16010KT 22/16 A3001 RMK A01 T02240161  RH  068%=      5-min Rain = 0
KSC1 140817Z 15009KT 22/16 A3001 RMK A01 T02230161  RH  068%=      5-min Rain = 0
KSC1 140818Z 15007KT 22/16 A3001 RMK A01 T02240162  RH  068%=      5-min Rain = 0
KSC1 140819Z 15008KT 22/16 A3001 RMK A01 T02230162  RH  068%=      5-min Rain = 0
KSC1 140820Z 15008KT 22/16 A3001 RMK A01 T02230162  RH  068%=      5-min Rain = 0
KSC1 140821Z 15007KT 22/16 A3001 RMK A01 T02230162  RH  068%=      5-min Rain = 0
KSC1 140822Z 15009KT 22/16 A3001 RMK A01 T02230162  RH  068%=      5-min Rain = 0
KSC1 140823Z 15006KT 22/16 A3001 RMK A01 T02230162  RH  068%=      5-min Rain = 0
KSC1 140824Z 16006KT 22/16 A3001 RMK A01 T02230162  RH  068%=      5-min Rain = 0
KSC1 140825Z 15006KT 22/16 A3001 RMK A01 T02220162  RH  069%=      5-min Rain = 0
KSC1 140826Z 16008KT 22/16 A3001 RMK A01 T02220162  RH  069%=      5-min Rain = 0
KSC1 140827Z 15005KT 22/16 A3001 RMK A01 T02220162  RH  069%=      5-min Rain = 0
KSC1 140828Z 15006KT 22/16 A3001 RMK A01 T02220162  RH  069%=      5-min Rain = 0
KSC1 140829Z 15006KT 22/16 A3001 RMK A01 T02220162  RH  069%=      5-min Rain = 0
KSC1 140830Z 14008KT 22/16 A3001 RMK A01 T02220162  RH  069%=      5-min Rain = 0
KSC1 140831Z 14005KT 22/16 A3001 RMK A01 T02220162  RH  069%=      5-min Rain = 0
KSC1 140832Z 14005KT 22/16 A3001 RMK A01 T02220163  RH  069%=      5-min Rain = 0
KSC1 140833Z 15007KT 22/16 A3001 RMK A01 T02210162  RH  069%=      5-min Rain = 0
KSC1 140834Z 15007KT 22/16 A3001 RMK A01 T02210162  RH  069%=      5-min Rain = 0
KSC1 140835Z 14008KT 22/16 A3001 RMK A01 T02210162  RH  069%=      5-min Rain = 0
KSC1 140836Z 14008KT 22/16 A3001 RMK A01 T02210163  RH  069%=      5-min Rain = 0
KSC1 140837Z 14007KT 22/16 A3001 RMK A01 T02210163  RH  069%=      5-min Rain = 0
KSC1 140838Z 14009KT 22/16 A30 RMK A01 T02210162  RH  069%=      5-min Rain = 0
KSC1 140839Z 14008KT 22/16 A30 RMK A01 T02220163  RH  069%=      5-min Rain = 0
KSC1 140840Z 14008KT 22/16 A30 RMK A01 T02220163  RH  069%=      5-min Rain = 0
KSC1 140841Z 14009KT 22/16 A30 RMK A01 T02220163  RH  069%=      5-min Rain = 0
KSC1 140842Z 15008KT 22/16 A30 RMK A01 T02220163  RH  069%=      5-min Rain = 0
KSC1 140843Z 15008KT 22/16 A30 RMK A01 T02220163  RH  069%=      5-min Rain = 0
KSC1 140844Z 15009KT 22/16 A30 RMK A01 T02220163  RH  069%=      5-min Rain = 0
KSC1 140845Z 15008KT 22/16 A3001 RMK A01 T02220163  RH  069%=      5-min Rain = 0
KSC1 140846Z 14008KT 22/16 A3001 RMK A01 T02220163  RH  069%=      5-min Rain = 0
KSC1 140847Z 15009KT 22/16 A3001 RMK A01 T02220163  RH  069%=      5-min Rain = 0
KSC1 140848Z 15008KT 22/16 A3001 RMK A01 T02220163  RH  069%=      5-min Rain = 0
KSC1 140849Z 14007KT 22/16 A3001 RMK A01 T02220164  RH  069%=      5-min Rain = 0
KSC1 140850Z 14007KT 22/16 A3001 RMK A01 T02220164  RH  070%=      5-min Rain = 0
KSC1 140851Z 15008KT 22/16 A3001 RMK A01 T02210164  RH  070%=      5-min Rain = 0
KSC1 140852Z 15008KT 22/16 A3001 RMK A01 T02210163  RH  070%=      5-min Rain = 0
KSC1 140853Z 15008KT 22/16 A3001 RMK A01 T02210163  RH  070%=      5-min Rain = 0
KSC1 140854Z 15006KT 22/16 A3001 RMK A01 T02210164  RH  070%=      5-min Rain = 0
KSC1 140855Z 15006KT 22/16 A3001 RMK A01 T02210163  RH  070%=      5-min Rain = 0
KSC1 140856Z 14006KT 22/16 A3001 RMK A01 T02210163  RH  070%=      5-min Rain = 0
KSC1 140857Z 14007KT 22/16 A3001 RMK A01 T02200163  RH  070%=      5-min Rain = 0
KSC1 140858Z 14007KT 22/16 A3001 RMK A01 T02200163  RH  070%=      5-min Rain = 0
KSC1 140859Z 14006KT 22/16 A30 RMK A01 T02190163  RH  070%=      5-min Rain = 0
KSC1 140900Z 14010KT 22/16 A30 RMK A01 T02190164  RH  071%=      5-min Rain = 0
KSC1 140901Z 14012KT 22/16 A30 RMK A01 T02200164  RH  071%=      5-min Rain = 0
KSC1 140902Z 14010KT 22/16 A30 RMK A01 T02210164  RH  070%=      5-min Rain = 0
KSC1 140903Z 15009KT 22/16 A30 RMK A01 T02210164  RH  070%=      5-min Rain = 0
KSC1 140904Z 14008KT 22/16 A30 RMK A01 T02210164  RH  070%=      5-min Rain = 0
KSC1 140905Z 15008KT 22/16 A30 RMK A01 T02210164  RH  070%=      5-min Rain = 0
KSC1 140906Z 14009KT 22/16 A30 RMK A01 T02210164  RH  070%=      5-min Rain = 0
KSC1 140907Z 14008G15KT 22/16 A30 RMK A01 T02210164  RH  070%=      5-min Rain = 0
KSC1 140908Z 15008G13KT 22/16 A30 RMK A01 T02210164  RH  070%=      5-min Rain = 0
KSC1 140909Z 15007KT 22/16 A30 RMK A01 T02210164  RH  070%=      5-min Rain = 0
KSC1 140910Z 14008KT 22/16 A30 RMK A01 T02210164  RH  070%=      5-min Rain = 0
KSC1 140911Z 15008KT 22/16 A30 RMK A01 T02210164  RH  070%=      5-min Rain = 0
KSC1 140912Z 14008KT 22/16 A30 RMK A01 T02210164  RH  070%=      5-min Rain = 0
KSC1 140913Z 15008KT 22/16 A30 RMK A01 T02210164  RH  070%=      5-min Rain = 0
KSC1 140914Z 15009KT 22/16 A30 RMK A01 T02210164  RH  070%=      5-min Rain = 0
KSC1 140915Z 14007KT 22/16 A3001 RMK A01 T02210164  RH  070%=      5-min Rain = 0
KSC1 140916Z 15008KT 22/16 A3001 RMK A01 T02210164  RH  070%=      5-min Rain = 0
KSC1 140917Z 15008KT 22/17 A3001 RMK A01 T02210165  RH  070%=      5-min Rain = 0
KSC1 140918Z 16006KT 22/17 A3001 RMK A01 T02210165  RH  070%=      5-min Rain = 0
KSC1 140919Z 16007KT 22/17 A3001 RMK A01 T02210165  RH  070%=      5-min Rain = 0
KSC1 140920Z 15006KT 22/17 A3001 RMK A01 T02210165  RH  070%=      5-min Rain = 0
KSC1 140921Z 17005KT 22/17 A3001 RMK A01 T02210165  RH  070%=      5-min Rain = 0
KSC1 140922Z 16006KT 22/17 A3002 RMK A01 T02210165  RH  070%=      5-min Rain = 0
KSC1 140923Z 15006KT 22/17 A3001 RMK A01 T02210165  RH  070%=      5-min Rain = 0
KSC1 140924Z 15008KT 22/17 A3001 RMK A01 T02210165  RH  070%=      5-min Rain = 0
KSC1 140925Z 15009KT 22/17 A3001 RMK A01 T02210165  RH  070%=      5-min Rain = 0
KSC1 140926Z 15006KT 22/17 A3001 RMK A01 T02210165  RH  070%=      5-min Rain = 0
KSC1 140927Z 15006KT 22/17 A3001 RMK A01 T02210165  RH  070%=      5-min Rain = 0
KSC1 140928Z 15005KT 22/17 A3001 RMK A01 T02210165  RH  070%=      5-min Rain = 0
KSC1 140929Z 15006KT 22/17 A3001 RMK A01 T02210165  RH  070%=      5-min Rain = 0
KSC1 140930Z 14006KT 22/17 A3001 RMK A01 T02210165  RH  071%=      5-min Rain = 0
KSC1 140931Z 15006KT 22/17 A3001 RMK A01 T02210165  RH  071%=      5-min Rain = 0
KSC1 140932Z 16005KT 22/17 A3002 RMK A01 T02200165  RH  071%=      5-min Rain = 0
KSC1 140933Z 16007KT 22/17 A3002 RMK A01 T02200165  RH  071%=      5-min Rain = 0
KSC1 140934Z 16005KT 22/17 A3002 RMK A01 T02200165  RH  071%=      5-min Rain = 0
KSC1 140935Z 16004KT 22/17 A3002 RMK A01 T02200165  RH  071%=      5-min Rain = 0
KSC1 140936Z 15005KT 22/17 A3002 RMK A01 T02200165  RH  071%=      5-min Rain = 0
KSC1 140937Z 15005KT 22/17 A3002 RMK A01 T02190165  RH  071%=      5-min Rain = 0
KSC1 140938Z 16005KT 22/17 A3002 RMK A01 T02190165  RH  071%=      5-min Rain = 0
KSC1 140939Z 16005KT 22/17 A3002 RMK A01 T02190165  RH  071%=      5-min Rain = 0
KSC1 140940Z 16004KT 22/17 A3002 RMK A01 T02190165  RH  071%=      5-min Rain = 0
KSC1 140941Z 15005KT 22/17 A3002 RMK A01 T02190165  RH  071%=      5-min Rain = 0
KSC1 140942Z 16005KT 22/17 A3002 RMK A01 T02190165  RH  072%=      5-min Rain = 0
KSC1 140943Z 16004KT 22/17 A3002 RMK A01 T02180165  RH  072%=      5-min Rain = 0
KSC1 140944Z 15004KT 22/17 A3002 RMK A01 T02170165  RH  072%=      5-min Rain = 0
KSC1 140945Z 15003KT 22/17 A3002 RMK A01 T02170165  RH  072%=      5-min Rain = 0
KSC1 140946Z 16004KT 22/17 A3002 RMK A01 T02170165  RH  072%=      5-min Rain = 0
KSC1 140947Z 15004KT 22/16 A3001 RMK A01 T02160164  RH  072%=      5-min Rain = 0
KSC1 140948Z 16004KT 22/17 A3001 RMK A01 T02160165  RH  073%=      5-min Rain = 0
KSC1 140949Z 15004KT 22/17 A3001 RMK A01 T02150165  RH  073%=      5-min Rain = 0
KSC1 140950Z 15003KT 22/17 A3001 RMK A01 T02150165  RH  073%=      5-min Rain = 0
KSC1 140951Z 16003KT 22/17 A3001 RMK A01 T02150165  RH  073%=      5-min Rain = 0
KSC1 140952Z 16003KT 22/17 A3001 RMK A01 T02150165  RH  073%=      5-min Rain = 0
KSC1 140953Z 15003KT 21/17 A3001 RMK A01 T02140165  RH  073%=      5-min Rain = 0
KSC1 140954Z 15003KT 21/16 A3001 RMK A01 T02140164  RH  073%=      5-min Rain = 0
KSC1 140955Z 16003KT 21/17 A3001 RMK A01 T02140165  RH  073%=      5-min Rain = 0
KSC1 140956Z 16003KT 21/17 A3001 RMK A01 T02130165  RH  074%=      5-min Rain = 0
KSC1 140957Z 16003KT 21/17 A3001 RMK A01 T02130165  RH  074%=      5-min Rain = 0
KSC1 140958Z 16003KT 21/17 A3001 RMK A01 T02130165  RH  074%=      5-min Rain = 0
KSC1 140959Z 17002KT 21/17 A3001 RMK A01 T02130165  RH  074%=      5-min Rain = 0
KSC1 141000Z 17003KT 21/17 A3001 RMK A01 T02130165  RH  074%=      5-min Rain = 0
KSC1 141001Z 17003KT 21/16 A3001 RMK A01 T02120164  RH  074%=      5-min Rain = 0
KSC1 141002Z 17003KT 21/17 A3001 RMK A01 T02130165  RH  074%=      5-min Rain = 0
KSC1 141003Z 17003KT 21/17 A3001 RMK A01 T02120165  RH  074%=      5-min Rain = 0
KSC1 141004Z 17002KT 21/16 A3001 RMK A01 T02120164  RH  074%=      5-min Rain = 0
KSC1 141005Z 16003KT 21/17 A3001 RMK A01 T02120165  RH  074%=      5-min Rain = 0
KSC1 141006Z 16003KT 21/17 A3001 RMK A01 T02120165  RH  074%=      5-min Rain = 0
KSC1 141007Z 16003KT 21/17 A3001 RMK A01 T02110165  RH  075%=      5-min Rain = 0
KSC1 141008Z 16003KT 21/17 A3001 RMK A01 T02110165  RH  075%=      5-min Rain = 0
KSC1 141009Z 16004KT 21/16 A3001 RMK A01 T02110164  RH  075%=      5-min Rain = 0
KSC1 141010Z 15003KT 21/17 A3001 RMK A01 T02110165  RH  075%=      5-min Rain = 0
KSC1 141011Z 14002KT 21/17 A3001 RMK A01 T02110165  RH  075%=      5-min Rain = 0
KSC1 141012Z 13002KT 21/17 A3001 RMK A01 T02110165  RH  075%=      5-min Rain = 0
KSC1 141013Z 13002KT 21/16 A3001 RMK A01 T02110164  RH  075%=      5-min Rain = 0
KSC1 141014Z 14003KT 21/17 A3001 RMK A01 T02110165  RH  075%=      5-min Rain = 0
KSC1 141015Z 14003KT 21/17 A3001 RMK A01 T02100165  RH  075%=      5-min Rain = 0
KSC1 141016Z 13003KT 21/17 A3001 RMK A01 T02100165  RH  075%=      5-min Rain = 0
KSC1 141017Z 13003KT 21/16 A3001 RMK A01 T02090164  RH  075%=      5-min Rain = 0
KSC1 141018Z 13004KT 21/16 A3001 RMK A01 T02090164  RH  076%=      5-min Rain = 0
KSC1 141019Z 12005KT 21/16 A3001 RMK A01 T02080164  RH  076%=      5-min Rain = 0
KSC1 141020Z 12005KT 21/16 A30 RMK A01 T02070164  RH  076%=      5-min Rain = 0
KSC1 141021Z 12006KT 21/16 A30 RMK A01 T02070164  RH  076%=      5-min Rain = 0
KSC1 141022Z 12007KT 21/16 A30 RMK A01 T02060164  RH  077%=      5-min Rain = 0
KSC1 141023Z 12007KT 21/16 A30 RMK A01 T02050164  RH  077%=      5-min Rain = 0
KSC1 141024Z 13006KT 21/17 A30 RMK A01 T02050165  RH  078%=      5-min Rain = 0
KSC1 141025Z 14006KT 21/17 A30 RMK A01 T02050165  RH  078%=      5-min Rain = 0
KSC1 141026Z 13006KT 21/17 A30 RMK A01 T02050165  RH  078%=      5-min Rain = 0
KSC1 141027Z 13008KT 21/17 A30 RMK A01 T02050165  RH  078%=      5-min Rain = 0
KSC1 141028Z 13007KT 21/17 A2999 RMK A01 T02050165  RH  078%=      5-min Rain = 0
KSC1 141029Z 13006KT 21/17 A2999 RMK A01 T02060165  RH  077%=      5-min Rain = 0
KSC1 141030Z 13006KT 21/17 A2999 RMK A01 T02060165  RH  077%=      5-min Rain = 0
KSC1 141031Z 13006KT 21/17 A2999 RMK A01 T02060165  RH  077%=      5-min Rain = 0
KSC1 141032Z 13006KT 21/17 A2999 RMK A01 T02050165  RH  078%=      5-min Rain = 0
KSC1 141033Z 13007KT 21/17 A2999 RMK A01 T02050165  RH  078%=      5-min Rain = 0
KSC1 141034Z 14007KT 20/17 A2999 RMK A01 T02040165  RH  078%=      5-min Rain = 0
KSC1 141035Z 15007KT 21/17 A2999 RMK A01 T02050166  RH  078%=      5-min Rain = 0
KSC1 141036Z 14006KT 21/17 A2999 RMK A01 T02050166  RH  078%=      5-min Rain = 0
KSC1 141037Z 15006KT 21/17 A30 RMK A01 T02070166  RH  078%=      5-min Rain = 0
KSC1 141038Z 16005KT 21/17 A30 RMK A01 T02070166  RH  077%=      5-min Rain = 0
KSC1 141039Z 16005KT 21/17 A30 RMK A01 T02070166  RH  077%=      5-min Rain = 0
KSC1 141040Z 15006KT 21/17 A30 RMK A01 T02080166  RH  077%=      5-min Rain = 0
KSC1 141041Z 15006KT 21/17 A30 RMK A01 T02090167  RH  077%=      5-min Rain = 0
KSC1 141042Z 16006KT 21/17 A30 RMK A01 T02090166  RH  076%=      5-min Rain = 0
KSC1 141043Z 15006KT 21/17 A30 RMK A01 T02090166  RH  076%=      5-min Rain = 0
KSC1 141044Z 15005KT 21/17 A30 RMK A01 T02100167  RH  076%=      5-min Rain = 0
KSC1 141045Z 15005KT 21/17 A30 RMK A01 T02100166  RH  076%=      5-min Rain = 0
KSC1 141046Z 15005KT 21/17 A30 RMK A01 T02100166  RH  076%=      5-min Rain = 0
KSC1 141047Z 14006KT 21/17 A30 RMK A01 T02100166  RH  076%=      5-min Rain = 0
KSC1 141048Z 14005KT 21/17 A30 RMK A01 T02100166  RH  076%=      5-min Rain = 0
KSC1 141049Z 14005KT 21/17 A30 RMK A01 T02100166  RH  076%=      5-min Rain = 0
KSC1 141050Z 15004KT 21/17 A30 RMK A01 T02100167  RH  076%=      5-min Rain = 0
KSC1 141051Z 14004KT 21/17 A30 RMK A01 T02100166  RH  076%=      5-min Rain = 0
KSC1 141052Z 14005KT 21/17 A30 RMK A01 T02100166  RH  076%=      5-min Rain = 0
KSC1 141053Z 14006KT 21/17 A30 RMK A01 T02100166  RH  076%=      5-min Rain = 0
KSC1 141054Z 15004KT 21/17 A30 RMK A01 T02090166  RH  076%=      5-min Rain = 0
KSC1 141055Z 15004KT 21/17 A30 RMK A01 T02090166  RH  076%=      5-min Rain = 0
KSC1 141056Z 14005KT 21/17 A30 RMK A01 T02090166  RH  076%=      5-min Rain = 0
KSC1 141057Z 13005KT 21/17 A30 RMK A01 T02090166  RH  076%=      5-min Rain = 0
KSC1 141058Z 13005KT 21/17 A30 RMK A01 T02080166  RH  077%=      5-min Rain = 0
KSC1 141059Z 15005KT 21/17 A30 RMK A01 T02080166  RH  077%=      5-min Rain = 0
KSC1 141100Z 15004KT 21/17 A3001 RMK A01 T02080166  RH  077%=      5-min Rain = 0
KSC1 141101Z 15002KT 21/17 A3001 RMK A01 T02080166  RH  077%=      5-min Rain = 0
KSC1 141102Z 15002KT 21/17 A3001 RMK A01 T02090166  RH  077%=      5-min Rain = 0
KSC1 141103Z 16004KT 21/17 A3001 RMK A01 T02080166  RH  077%=      5-min Rain = 0
KSC1 141104Z 15003KT 21/17 A3001 RMK A01 T02080166  RH  077%=      5-min Rain = 0
KSC1 141105Z 14004KT 21/17 A30 RMK A01 T02080166  RH  077%=      5-min Rain = 0
KSC1 141106Z 13004KT 21/17 A30 RMK A01 T02070166  RH  077%=      5-min Rain = 0
KSC1 141107Z 13004KT 21/17 A30 RMK A01 T02070166  RH  077%=      5-min Rain = 0
KSC1 141108Z 15005KT 21/17 A30 RMK A01 T02060166  RH  078%=      5-min Rain = 0
KSC1 141109Z 14004KT 21/17 A30 RMK A01 T02060166  RH  078%=      5-min Rain = 0
KSC1 141110Z 14005KT 21/17 A30 RMK A01 T02060166  RH  078%=      5-min Rain = 0
KSC1 141111Z 14005KT 21/17 A30 RMK A01 T02060166  RH  078%=      5-min Rain = 0
KSC1 141112Z 13005KT 21/17 A30 RMK A01 T02060166  RH  078%=      5-min Rain = 0
KSC1 141113Z 16003KT 21/17 A30 RMK A01 T02070166  RH  078%=      5-min Rain = 0
KSC1 141114Z 15004KT 21/17 A3001 RMK A01 T02070166  RH  078%=      5-min Rain = 0
KSC1 141115Z 15005KT 21/17 A30 RMK A01 T02060166  RH  078%=      5-min Rain = 0
KSC1 141116Z 16004KT 21/17 A3001 RMK A01 T02070166  RH  078%=      5-min Rain = 0
KSC1 141117Z 16004KT 21/17 A3001 RMK A01 T02060166  RH  078%=      5-min Rain = 0
KSC1 141118Z 16005KT 21/17 A3001 RMK A01 T02070166  RH  077%=      5-min Rain = 0
KSC1 141119Z 16005KT 21/17 A3001 RMK A01 T02070166  RH  077%=      5-min Rain = 0
KSC1 141120Z 15006KT 21/17 A30 RMK A01 T02070166  RH  077%=      5-min Rain = 0
KSC1 141121Z 15006KT 21/17 A30 RMK A01 T02070166  RH  077%=      5-min Rain = 0
KSC1 141122Z 16006KT 21/17 A30 RMK A01 T02070166  RH  077%=      5-min Rain = 0
KSC1 141123Z 15006KT 21/17 A30 RMK A01 T02070166  RH  077%=      5-min Rain = 0
KSC1 141124Z 14005KT 21/17 A30 RMK A01 T02070166  RH  077%=      5-min Rain = 0
KSC1 141125Z 15006KT 21/17 A30 RMK A01 T02070166  RH  077%=      5-min Rain = 0
KSC1 141126Z 15006KT 21/17 A30 RMK A01 T02070166  RH  077%=      5-min Rain = 0
KSC1 141127Z 15007KT 21/17 A30 RMK A01 T02080166  RH  077%=      5-min Rain = 0
KSC1 141128Z 15006KT 21/17 A30 RMK A01 T02080166  RH  077%=      5-min Rain = 0
KSC1 141129Z 14006KT 21/17 A30 RMK A01 T02080166  RH  077%=      5-min Rain = 0
KSC1 141130Z 15006KT 21/17 A30 RMK A01 T02080166  RH  077%=      5-min Rain = 0
KSC1 141131Z 15007KT 21/17 A30 RMK A01 T02080167  RH  077%=      5-min Rain = 0
KSC1 141132Z 15005KT 21/17 A30 RMK A01 T02090166  RH  077%=      5-min Rain = 0
KSC1 141133Z 15006KT 21/17 A30 RMK A01 T02090166  RH  077%=      5-min Rain = 0
KSC1 141134Z 15006KT 21/17 A30 RMK A01 T02090166  RH  077%=      5-min Rain = 0
KSC1 141135Z 14005KT 21/17 A30 RMK A01 T02080166  RH  077%=      5-min Rain = 0
KSC1 141136Z 16006KT 21/17 A30 RMK A01 T02080166  RH  077%=      5-min Rain = 0
KSC1 141137Z 16006KT 21/17 A30 RMK A01 T02080166  RH  077%=      5-min Rain = 0
KSC1 141138Z 15008KT 21/17 A30 RMK A01 T02080167  RH  077%=      5-min Rain = 0
KSC1 141139Z 15007KT 21/17 A30 RMK A01 T02080167  RH  077%=      5-min Rain = 0
KSC1 141140Z 15005KT 21/17 A30 RMK A01 T02080166  RH  077%=      5-min Rain = 0
KSC1 141141Z 16004KT 21/17 A30 RMK A01 T02080166  RH  077%=      5-min Rain = 0
KSC1 141142Z 16005KT 21/17 A30 RMK A01 T02080166  RH  077%=      5-min Rain = 0
KSC1 141143Z 15005KT 21/17 A30 RMK A01 T02080166  RH  077%=      5-min Rain = 0
KSC1 141144Z 16005KT 21/17 A30 RMK A01 T02070166  RH  077%=      5-min Rain = 0
KSC1 141145Z 15005KT 21/17 A30 RMK A01 T02070166  RH  077%=      5-min Rain = 0
KSC1 141146Z 15004KT 21/17 A30 RMK A01 T02080166  RH  077%=      5-min Rain = 0
KSC1 141147Z 16005KT 21/17 A30 RMK A01 T02070166  RH  077%=      5-min Rain = 0
KSC1 141148Z 16006KT 21/17 A30 RMK A01 T02080167  RH  077%=      5-min Rain = 0
KSC1 141149Z 16005KT 21/17 A30 RMK A01 T02070166  RH  077%=      5-min Rain = 0
KSC1 141150Z 16006KT 21/17 A30 RMK A01 T02070166  RH  077%=      5-min Rain = 0
KSC1 141151Z 16004KT 21/17 A30 RMK A01 T02070166  RH  077%=      5-min Rain = 0
KSC1 141152Z 17005KT 21/17 A30 RMK A01 T02080166  RH  077%=      5-min Rain = 0
KSC1 141153Z 16005KT 21/17 A30 RMK A01 T02070166  RH  077%=      5-min Rain = 0
KSC1 141154Z 16008KT 21/17 A30 RMK A01 T02080167  RH  077%=      5-min Rain = 0
KSC1 141155Z 16007KT 21/17 A30 RMK A01 T02080167  RH  077%=      5-min Rain = 0
KSC1 141156Z 15006KT 21/17 A30 RMK A01 T02080167  RH  077%=      5-min Rain = 0
KSC1 141157Z 16006KT 21/17 A30 RMK A01 T02090167  RH  077%=      5-min Rain = 0
KSC1 141158Z 15005KT 21/17 A30 RMK A01 T02080167  RH  077%=      5-min Rain = 0
KSC1 141159Z 15007KT 21/17 A30 RMK A01 T02090167  RH  077%=      5-min Rain = 0
KSC1 141200Z 16007KT 21/17 A30 RMK A01 T02080167  RH  077%=      5-min Rain = 0
KSC1 141201Z 16007KT 21/17 A30 RMK A01 T02090167  RH  077%=      5-min Rain = 0
KSC1 141202Z 16007KT 21/17 A30 RMK A01 T02090167  RH  077%=      5-min Rain = 0
KSC1 141203Z 15007KT 21/17 A30 RMK A01 T02100167  RH  076%=      5-min Rain = 0
KSC1 141204Z 16007KT 21/17 A30 RMK A01 T02100167  RH  076%=      5-min Rain = 0
KSC1 141205Z 17006KT 21/17 A30 RMK A01 T02110167  RH  076%=      5-min Rain = 0
KSC1 141206Z 16008KT 21/17 A30 RMK A01 T02110167  RH  076%=      5-min Rain = 0
KSC1 141207Z 16006KT 21/17 A30 RMK A01 T02110167  RH  076%=      5-min Rain = 0
KSC1 141208Z 17007KT 21/17 A30 RMK A01 T02110167  RH  076%=      5-min Rain = 0
KSC1 141209Z 16006KT 21/17 A30 RMK A01 T02110167  RH  076%=      5-min Rain = 0
KSC1 141210Z 16008KT 21/17 A30 RMK A01 T02110167  RH  076%=      5-min Rain = 0
KSC1 141211Z 16007KT 21/17 A30 RMK A01 T02110167  RH  076%=      5-min Rain = 0
KSC1 141212Z 16009KT 21/17 A30 RMK A01 T02110167  RH  076%=      5-min Rain = 0
KSC1 141213Z 16007KT 21/17 A30 RMK A01 T02120167  RH  076%=      5-min Rain = 0
KSC1 141214Z 16007KT 21/17 A30 RMK A01 T02120167  RH  076%=      5-min Rain = 0
KSC1 141215Z 15007KT 21/17 A30 RMK A01 T02120168  RH  076%=      5-min Rain = 0
KSC1 141216Z 16007KT 21/17 A30 RMK A01 T02120168  RH  076%=      5-min Rain = 0
KSC1 141217Z 16006KT 21/17 A30 RMK A01 T02120168  RH  076%=      5-min Rain = 0
KSC1 141218Z 15008KT 21/17 A30 RMK A01 T02120168  RH  076%=      5-min Rain = 0
KSC1 141219Z 16007KT 21/17 A30 RMK A01 T02130168  RH  075%=      5-min Rain = 0
KSC1 141220Z 16008KT 21/17 A30 RMK A01 T02130168  RH  075%=      5-min Rain = 0
KSC1 141221Z 16005KT 21/17 A30 RMK A01 T02130168  RH  075%=      5-min Rain = 0
KSC1 141222Z 15006KT 21/17 A30 RMK A01 T02140168  RH  075%=      5-min Rain = 0
KSC1 141223Z 16006KT 21/17 A30 RMK A01 T02140168  RH  075%=      5-min Rain = 0
KSC1 141224Z 15008KT 21/17 A30 RMK A01 T02140168  RH  075%=      5-min Rain = 0
KSC1 141225Z 16007KT 21/17 A30 RMK A01 T02140168  RH  075%=      5-min Rain = 0
KSC1 141226Z 15007KT 22/17 A30 RMK A01 T02150168  RH  075%=      5-min Rain = 0
KSC1 141227Z 15008KT 22/17 A30 RMK A01 T02150168  RH  074%=      5-min Rain = 0
KSC1 141228Z 15008KT 22/17 A30 RMK A01 T02160168  RH  074%=      5-min Rain = 0
KSC1 141229Z 15009KT 22/17 A30 RMK A01 T02160168  RH  074%=      5-min Rain = 0
KSC1 141230Z 15007KT 22/17 A30 RMK A01 T02170169  RH  074%=      5-min Rain = 0
KSC1 141231Z 14007KT 22/17 A30 RMK A01 T02170168  RH  074%=      5-min Rain = 0
KSC1 141232Z 15009KT 22/17 A30 RMK A01 T02170168  RH  074%=      5-min Rain = 0
KSC1 141233Z 15008KT 22/17 A30 RMK A01 T02170168  RH  074%=      5-min Rain = 0
KSC1 141234Z 15007KT 22/17 A30 RMK A01 T02170169  RH  074%=      5-min Rain = 0
KSC1 141235Z 15008KT 22/17 A30 RMK A01 T02170169  RH  074%=      5-min Rain = 0
KSC1 141236Z 15006KT 22/17 A30 RMK A01 T02170168  RH  074%=      5-min Rain = 0
KSC1 141237Z 15008KT 22/17 A30 RMK A01 T02170168  RH  074%=      5-min Rain = 0
KSC1 141238Z 14007KT 22/17 A30 RMK A01 T02170168  RH  074%=      5-min Rain = 0
KSC1 141239Z 15008KT 22/17 A30 RMK A01 T02170168  RH  074%=      5-min Rain = 0
KSC1 141240Z 15007KT 22/17 A30 RMK A01 T02170168  RH  073%=      5-min Rain = 0
KSC1 141241Z 15007KT 22/17 A30 RMK A01 T02180168  RH  073%=      5-min Rain = 0
KSC1 141242Z 15006KT 22/17 A30 RMK A01 T02180168  RH  074%=      5-min Rain = 0
KSC1 141243Z 15008KT 22/17 A30 RMK A01 T02180168  RH  074%=      5-min Rain = 0
KSC1 141244Z 15008KT 22/17 A30 RMK A01 T02180168  RH  073%=      5-min Rain = 0
KSC1 141245Z 14006KT 22/17 A30 RMK A01 T02180169  RH  073%=      5-min Rain = 0
KSC1 141246Z 15006KT 22/17 A30 RMK A01 T02180169  RH  073%=      5-min Rain = 0
KSC1 141247Z 14007KT 22/17 A30 RMK A01 T02180169  RH  073%=      5-min Rain = 0
KSC1 141248Z 15007KT 22/17 A30 RMK A01 T02190169  RH  073%=      5-min Rain = 0
KSC1 141249Z 14009KT 22/17 A30 RMK A01 T02190169  RH  073%=      5-min Rain = 0
KSC1 141250Z 15012KT 22/17 A2999 RMK A01 T02190169  RH  073%=      5-min Rain = 0
KSC1 141251Z 13010KT 22/17 A2999 RMK A01 T02190168  RH  073%=      5-min Rain = 0
KSC1 141252Z 14010KT 22/17 A2999 RMK A01 T02200169  RH  073%=      5-min Rain = 0
KSC1 141253Z 15009KT 22/17 A2999 RMK A01 T02200169  RH  073%=      5-min Rain = 0
KSC1 141254Z 13006KT 22/17 A2999 RMK A01 T02200169  RH  073%=      5-min Rain = 0
KSC1 141255Z 14006KT 22/17 A2999 RMK A01 T02200169  RH  073%=      5-min Rain = 0
KSC1 141256Z 14005KT 22/17 A2999 RMK A01 T02200169  RH  073%=      5-min Rain = 0
KSC1 141257Z 13006KT 22/17 A2999 RMK A01 T02210170  RH  073%=      5-min Rain = 0
KSC1 141258Z 14009KT 22/17 A2999 RMK A01 T02210169  RH  073%=      5-min Rain = 0
KSC1 141259Z 14006KT 22/17 A2999 RMK A01 T02200169  RH  073%=      5-min Rain = 0
KSC1 141300Z 14007KT 22/17 A2999 RMK A01 T02200169  RH  073%=      5-min Rain = 0
KSC1 141301Z 14009KT 22/17 A2999 RMK A01 T02210169  RH  072%=      5-min Rain = 0
KSC1 141302Z 14007KT 22/17 A2999 RMK A01 T02210169  RH  072%=      5-min Rain = 0
KSC1 141303Z 14005KT 22/17 A2999 RMK A01 T02210169  RH  072%=      5-min Rain = 0
KSC1 141304Z 14006KT 22/17 A2999 RMK A01 T02210170  RH  073%=      5-min Rain = 0
KSC1 141305Z 14008KT 22/17 A2999 RMK A01 T02210170  RH  073%=      5-min Rain = 0
KSC1 141306Z 14007KT 22/17 A2999 RMK A01 T02220170  RH  072%=      5-min Rain = 0
KSC1 141307Z 13010KT 22/17 A2999 RMK A01 T02220170  RH  072%=      5-min Rain = 0
KSC1 141308Z 15008KT 22/17 A2999 RMK A01 T02220169  RH  072%=      5-min Rain = 0
KSC1 141309Z 14009KT 22/17 A2999 RMK A01 T02220170  RH  072%=      5-min Rain = 0
KSC1 141310Z 15012G17KT 22/17 A2999 RMK A01 T02220169  RH  072%=      5-min Rain = 0
KSC1 141311Z 14009KT 22/17 A2999 RMK A01 T02230170  RH  072%=      5-min Rain = 0
KSC1 141312Z 14011KT 22/17 A2999 RMK A01 T02230169  RH  072%=      5-min Rain = 0
KSC1 141313Z 15009G14KT 22/17 A2999 RMK A01 T02230170  RH  072%=      5-min Rain = 0
KSC1 141314Z 15010KT 22/17 A2999 RMK A01 T02230170  RH  072%=      5-min Rain = 0
KSC1 141315Z 15008KT 22/17 A2999 RMK A01 T02230170  RH  072%=      5-min Rain = 0
KSC1 141316Z 14008KT 22/17 A2999 RMK A01 T02230170  RH  072%=      5-min Rain = 0
KSC1 141317Z 15009KT 22/17 A2999 RMK A01 T02240170  RH  072%=      5-min Rain = 0
KSC1 141318Z 15009KT 22/17 A2999 RMK A01 T02240170  RH  072%=      5-min Rain = 0
KSC1 141319Z 15010G15KT 22/17 A2999 RMK A01 T02240170  RH  071%=      5-min Rain = 0
KSC1 141320Z 14009KT 22/17 A2999 RMK A01 T02240170  RH  071%=      5-min Rain = 0
KSC1 141321Z 15011KT 22/17 A2999 RMK A01 T02240170  RH  071%=      5-min Rain = 0
KSC1 141322Z 15009KT 22/17 A2999 RMK A01 T02240170  RH  071%=      5-min Rain = 0
KSC1 141323Z 14011KT 22/17 A30 RMK A01 T02240170  RH  071%=      5-min Rain = 0
KSC1 141324Z 15010KT 22/17 A30 RMK A01 T02240170  RH  071%=      5-min Rain = 0
KSC1 141325Z 15010KT 22/17 A30 RMK A01 T02240169  RH  071%=      5-min Rain = 0
KSC1 141326Z 15009KT 22/17 A30 RMK A01 T02240169  RH  071%=      5-min Rain = 0
KSC1 141327Z 16007KT 22/17 A30 RMK A01 T02240169  RH  071%=      5-min Rain = 0
KSC1 141328Z 15008KT 22/17 A30 RMK A01 T02240170  RH  071%=      5-min Rain = 0
KSC1 141329Z 14007KT 22/17 A30 RMK A01 T02240170  RH  071%=      5-min Rain = 0
KSC1 141330Z 15009KT 22/17 A30 RMK A01 T02240170  RH  071%=      5-min Rain = 0
KSC1 141331Z 15008KT 22/17 A30 RMK A01 T02240170  RH  071%=      5-min Rain = 0
KSC1 141332Z 15010KT 23/17 A30 RMK A01 T02250170  RH  071%=      5-min Rain = 0
KSC1 141333Z 14009KT 23/17 A30 RMK A01 T02250169  RH  071%=      5-min Rain = 0
KSC1 141334Z 15008KT 23/17 A30 RMK A01 T02250169  RH  071%=      5-min Rain = 0
KSC1 141335Z 15012KT 23/17 A30 RMK A01 T02250170  RH  071%=      5-min Rain = 0
KSC1 141336Z 16012KT 23/17 A30 RMK A01 T02250169  RH  071%=      5-min Rain = 0
KSC1 141337Z 16010KT 23/17 A30 RMK A01 T02260169  RH  070%=      5-min Rain = 0
KSC1 141338Z 16011KT 23/17 A30 RMK A01 T02260169  RH  070%=      5-min Rain = 0
KSC1 141339Z 16010KT 23/17 A30 RMK A01 T02260169  RH  070%=      5-min Rain = 0
KSC1 141340Z 15010KT 23/17 A30 RMK A01 T02270169  RH  070%=      5-min Rain = 0
KSC1 141341Z 16010KT 23/17 A30 RMK A01 T02280170  RH  070%=      5-min Rain = 0
KSC1 141342Z 16009G14KT 23/17 A30 RMK A01 T02300171  RH  069%=      5-min Rain = 0
KSC1 141343Z 15011KT 23/17 A30 RMK A01 T02320171  RH  069%=      5-min Rain = 0
KSC1 141344Z 16010KT 23/17 A30 RMK A01 T02330170  RH  068%=      5-min Rain = 0
KSC1 141345Z 15008KT 23/17 A30 RMK A01 T02340171  RH  068%=      5-min Rain = 0
KSC1 141346Z 16008KT 24/17 A30 RMK A01 T02350171  RH  067%=      5-min Rain = 0
KSC1 141347Z 16010G15KT 24/17 A3001 RMK A01 T02360172  RH  067%=      5-min Rain = 0
KSC1 141348Z 15012KT 24/17 A3001 RMK A01 T02380171  RH  066%=      5-min Rain = 0
KSC1 141349Z 16011KT 24/17 A30 RMK A01 T02390170  RH  065%=      5-min Rain = 0
KSC1 141350Z 16012KT 24/17 A30 RMK A01 T02390170  RH  065%=      5-min Rain = 0
KSC1 141351Z 15012G17KT 24/17 A30 RMK A01 T02400170  RH  065%=      5-min Rain = 0
KSC1 141352Z 15013G19KT 24/17 A30 RMK A01 T02410170  RH  064%=      5-min Rain = 0
KSC1 141353Z 15012KT 24/17 A30 RMK A01 T02420169  RH  064%=      5-min Rain = 0
KSC1 141354Z 15014G21KT 24/17 A30 RMK A01 T02440169  RH  063%=      5-min Rain = 0
KSC1 141355Z 16015G20KT 24/17 A30 RMK A01 T02440168  RH  062%=      5-min Rain = 0
KSC1 141356Z 16013KT 24/17 A3001 RMK A01 T02440168  RH  062%=      5-min Rain = 0
KSC1 141357Z 16014KT 25/17 A30 RMK A01 T02450168  RH  062%=      5-min Rain = 0
KSC1 141358Z 17014KT 25/17 A30 RMK A01 T02450167  RH  062%=      5-min Rain = 0
KSC1 141359Z 17014G20KT 25/17 A30 RMK A01 T02450167  RH  062%=      5-min Rain = 0
KSC1 141400Z 16013G18KT 25/17 A30 RMK A01 T02450167  RH  062%=      5-min Rain = 0
KSC1 141401Z 16012G17KT 25/17 A3001 RMK A01 T02450167  RH  062%=      5-min Rain = 0
KSC1 141402Z 17013G18KT 25/17 A30 RMK A01 T02460168  RH  062%=      5-min Rain = 0
KSC1 141403Z 17012G17KT 25/17 A30 RMK A01 T02470167  RH  061%=      5-min Rain = 0
KSC1 141404Z 17014KT 25/17 A30 RMK A01 T02470167  RH  061%=      5-min Rain = 0
KSC1 141405Z 17014KT 25/17 A30 RMK A01 T02460168  RH  061%=      5-min Rain = 0
KSC1 141406Z 18015G20KT 25/17 A30 RMK A01 T02470166  RH  061%=      5-min Rain = 0
KSC1 141407Z 17012G17KT 25/17 A30 RMK A01 T02470167  RH  061%=      5-min Rain = 0
KSC1 141408Z 17010KT 25/17 A3001 RMK A01 T02480168  RH  061%=      5-min Rain = 0
KSC1 141409Z 15009G14KT 25/17 A30 RMK A01 T02490169  RH  061%=      5-min Rain = 0
KSC1 141410Z 16012G18KT 25/17 A30 RMK A01 T02520169  RH  060%=      5-min Rain = 0
KSC1 141411Z 16012G17KT 25/17 A30 RMK A01 T02520168  RH  059%=      5-min Rain = 0
KSC1 141412Z 16011KT 25/17 A30 RMK A01 T02520168  RH  060%=      5-min Rain = 0
KSC1 141413Z 16010G16KT 25/17 A30 RMK A01 T02520169  RH  060%=      5-min Rain = 0
KSC1 141414Z 15010KT 25/17 A30 RMK A01 T02540170  RH  060%=      5-min Rain = 0
KSC1 141415Z 16006KT 26/17 A30 RMK A01 T02560170  RH  059%=      5-min Rain = 0
KSC1 141416Z 16009G14KT 26/17 A3001 RMK A01 T02580172  RH  059%=      5-min Rain = 0
KSC1 141417Z 16014KT 26/17 A3001 RMK A01 T02590169  RH  057%=      5-min Rain = 0
KSC1 141418Z 17015KT 26/17 A30 RMK A01 T02590167  RH  057%=      5-min Rain = 0
KSC1 141419Z 17014G20KT 26/17 A30 RMK A01 T02570167  RH  057%=      5-min Rain = 0
KSC1 141420Z 16009G17KT 26/17 A30 RMK A01 T02570167  RH  058%=      5-min Rain = 0
KSC1 141421Z 16013G19KT 26/17 A3001 RMK A01 T02580168  RH  058%=      5-min Rain = 0
KSC1 141422Z 16017KT 26/17 A3001 RMK A01 T02590167  RH  057%=      5-min Rain = 0
KSC1 141423Z 15014KT 26/17 A3001 RMK A01 T02580165  RH  057%=      5-min Rain = 0
KSC1 141424Z 15018G25KT 26/16 A3001 RMK A01 T02560163  RH  057%=      5-min Rain = 0
KSC1 141425Z 16015G20KT 25/16 A3001 RMK A01 T02540162  RH  057%=      5-min Rain = 0
KSC1 141426Z 17017G22KT 25/16 A3001 RMK A01 T02530162  RH  057%=      5-min Rain = 0
KSC1 141427Z 17016KT 25/16 A3001 RMK A01 T02530162  RH  057%=      5-min Rain = 0
KSC1 141428Z 17014KT 25/16 A3001 RMK A01 T02530162  RH  057%=      5-min Rain = 0
KSC1 141429Z 17014G19KT 25/16 A3001 RMK A01 T02520162  RH  057%=      5-min Rain = 0
KSC1 141430Z 17013KT 25/16 A3001 RMK A01 T02520162  RH  057%=      5-min Rain = 0
KSC1 141431Z 17016G21KT 25/16 A3001 RMK A01 T02530162  RH  057%=      5-min Rain = 0
KSC1 141432Z 17015G20KT 25/16 A3001 RMK A01 T02530162  RH  057%=      5-min Rain = 0
KSC1 141433Z 17013G19KT 25/16 A3001 RMK A01 T02540162  RH  057%=      5-min Rain = 0
KSC1 141434Z 17016KT 26/16 A3001 RMK A01 T02560163  RH  057%=      5-min Rain = 0
KSC1 141435Z 17012G17KT 26/16 A3001 RMK A01 T02570163  RH  056%=      5-min Rain = 0
KSC1 141436Z 16015G20KT 26/16 A3001 RMK A01 T02580163  RH  056%=      5-min Rain = 0
KSC1 141437Z 17014KT 26/16 A3001 RMK A01 T02590163  RH  055%=      5-min Rain = 0
KSC1 141438Z 16013KT 26/16 A3001 RMK A01 T02600163  RH  055%=      5-min Rain = 0
KSC1 141439Z 16011KT 26/16 A3001 RMK A01 T02590163  RH  055%=      5-min Rain = 0
KSC1 141440Z 15009KT 26/16 A3001 RMK A01 T02590164  RH  056%=      5-min Rain = 0
KSC1 141441Z 16012KT 26/16 A3001 RMK A01 T02590163  RH  056%=      5-min Rain = 0
KSC1 141442Z 16013G20KT 26/16 A3001 RMK A01 T02580161  RH  055%=      5-min Rain = 0
KSC1 141443Z 15016G23KT 26/16 A3001 RMK A01 T02560160  RH  055%=      5-min Rain = 0
KSC1 141444Z 16015G20KT 26/16 A3001 RMK A01 T02550159  RH  056%=      5-min Rain = 0
KSC1 141445Z 15014G19KT 25/16 A3001 RMK A01 T02530158  RH  056%=      5-min Rain = 0
KSC1 141446Z 16011KT 25/16 A3001 RMK A01 T02520158  RH  056%=      5-min Rain = 0
KSC1 141447Z 16009G16KT 25/16 A3001 RMK A01 T02510159  RH  057%=      5-min Rain = 0
KSC1 141448Z 16014KT 25/16 A3001 RMK A01 T02500159  RH  057%=      5-min Rain = 0
KSC1 141449Z 16015KT 25/16 A3001 RMK A01 T02500158  RH  057%=      5-min Rain = 0
KSC1 141450Z 17014KT 25/16 A3001 RMK A01 T02490157  RH  057%=      5-min Rain = 0
KSC1 141451Z 16016KT 25/16 A3001 RMK A01 T02480157  RH  057%=      5-min Rain = 0
KSC1 141452Z 16018KT 25/16 A30 RMK A01 T02490156  RH  056%=      5-min Rain = 0
KSC1 141453Z 16015KT 25/16 A30 RMK A01 T02490156  RH  056%=      5-min Rain = 0
KSC1 141454Z 16013KT 25/16 A30 RMK A01 T02490156  RH  056%=      5-min Rain = 0
KSC1 141455Z 16012G17KT 25/16 A30 RMK A01 T02500158  RH  057%=      5-min Rain = 0
KSC1 141456Z 15011KT 25/16 A30 RMK A01 T02530159  RH  056%=      5-min Rain = 0
KSC1 141457Z 15012KT 26/16 A30 RMK A01 T02550158  RH  055%=      5-min Rain = 0
KSC1 141458Z 15013KT 26/16 A30 RMK A01 T02560158  RH  055%=      5-min Rain = 0
KSC1 141459Z 15012KT 26/16 A30 RMK A01 T02560157  RH  054%=      5-min Rain = 0
KSC1 141500Z 16016G24KT 26/16 A30 RMK A01 T02580158  RH  054%=      5-min Rain = 0
KSC1 141501Z 14016G21KT 26/16 A30 RMK A01 T02590157  RH  053%=      5-min Rain = 0
KSC1 141502Z 15017KT 26/16 A30 RMK A01 T02600157  RH  053%=      5-min Rain = 0
KSC1 141503Z 16016G22KT 26/16 A30 RMK A01 T02600157  RH  053%=      5-min Rain = 0
KSC1 141504Z 16017G22KT 26/16 A30 RMK A01 T02610157  RH  053%=      5-min Rain = 0
KSC1 141505Z 16016KT 26/16 A30 RMK A01 T02610157  RH  053%=      5-min Rain = 0
KSC1 141506Z 16016G22KT 26/16 A30 RMK A01 T02620157  RH  052%=      5-min Rain = 0
KSC1 141507Z 16020G26KT 26/16 A30 RMK A01 T02630157  RH  052%=      5-min Rain = 0
KSC1 141508Z 16018G24KT 26/16 A30 RMK A01 T02630157  RH  052%=      5-min Rain = 0
KSC1 141509Z 16017KT 26/16 A30 RMK A01 T02640157  RH  052%=      5-min Rain = 0
KSC1 141510Z 17018KT 26/16 A30 RMK A01 T02640157  RH  052%=      5-min Rain = 0
KSC1 141511Z 16016G21KT 27/16 A30 RMK A01 T02650157  RH  051%=      5-min Rain = 0
KSC1 141512Z 17015G21KT 27/16 A30 RMK A01 T02650158  RH  052%=      5-min Rain = 0
KSC1 141513Z 16013G19KT 27/16 A30 RMK A01 T02660158  RH  051%=      5-min Rain = 0
KSC1 141514Z 15016KT 27/16 A30 RMK A01 T02670158  RH  051%=      5-min Rain = 0
KSC1 141515Z 16015G21KT 27/16 A30 RMK A01 T02670157  RH  051%=      5-min Rain = 0
KSC1 141516Z 15014G21KT 27/16 A30 RMK A01 T02680157  RH  051%=      5-min Rain = 0
KSC1 141517Z 16017KT 27/16 A30 RMK A01 T02690158  RH  051%=      5-min Rain = 0
KSC1 141518Z 15015G22KT 27/16 A30 RMK A01 T02700158  RH  050%=      5-min Rain = 0
KSC1 141519Z 16018G23KT 27/16 A30 RMK A01 T02710157  RH  050%=      5-min Rain = 0
KSC1 141520Z 16017G22KT 27/16 A30 RMK A01 T02700156  RH  050%=      5-min Rain = 0
KSC1 141521Z 15015G21KT 27/16 A30 RMK A01 T02690156  RH  050%=      5-min Rain = 0
KSC1 141522Z 17012KT 27/16 A30 RMK A01 T02700159  RH  051%=      5-min Rain = 0
KSC1 141523Z 16015KT 27/16 A30 RMK A01 T02720158  RH  050%=      5-min Rain = 0
KSC1 141524Z 16014G19KT 27/16 A30 RMK A01 T02730158  RH  049%=      5-min Rain = 0
KSC1 141525Z 15017G22KT 27/16 A30 RMK A01 T02730157  RH  049%=      5-min Rain = 0
KSC1 141526Z 16015G21KT 27/16 A30 RMK A01 T02730157  RH  049%=      5-min Rain = 0
KSC1 141527Z 16018G25KT 27/16 A30 RMK A01 T02720157  RH  049%=      5-min Rain = 0
KSC1 141528Z 16013KT 27/16 A30 RMK A01 T02720157  RH  049%=      5-min Rain = 0
KSC1 141529Z 16013KT 27/16 A3001 RMK A01 T02720158  RH  050%=      5-min Rain = 0
KSC1 141530Z 16015KT 27/16 A3001 RMK A01 T02730158  RH  049%=      5-min Rain = 0
KSC1 141531Z 16016G21KT 28/16 A3001 RMK A01 T02750158  RH  049%=      5-min Rain = 0
KSC1 141532Z 17015G22KT 27/16 A3001 RMK A01 T02730158  RH  049%=      5-min Rain = 0
KSC1 141533Z 18017G28KT 27/16 A3001 RMK A01 T02730157  RH  049%=      5-min Rain = 0
KSC1 141534Z 18019G25KT 27/16 A3001 RMK A01 T02730157  RH  049%=      5-min Rain = 0
KSC1 141535Z 17017KT 27/16 A3001 RMK A01 T02720156  RH  049%=      5-min Rain = 0
KSC1 141536Z 17016KT 27/16 A3001 RMK A01 T02720157  RH  050%=      5-min Rain = 0
KSC1 141537Z 17014G20KT 27/16 A3001 RMK A01 T02720156  RH  049%=      5-min Rain = 0
KSC1 141538Z 17014G19KT 27/16 A3001 RMK A01 T02720157  RH  049%=      5-min Rain = 0
KSC1 141539Z 16017G23KT 27/16 A3001 RMK A01 T02730158  RH  049%=      5-min Rain = 0
KSC1 141540Z 16012G17KT 28/16 A3001 RMK A01 T02750159  RH  049%=      5-min Rain = 0
KSC1 141541Z 15016KT 28/16 A3001 RMK A01 T02760159  RH  049%=      5-min Rain = 0
KSC1 141542Z 16015G20KT 28/16 A30 RMK A01 T02770159  RH  049%=      5-min Rain = 0
KSC1 141543Z 17015G21KT 28/16 A30 RMK A01 T02770159  RH  048%=      5-min Rain = 0
KSC1 141544Z 17017G23KT 28/16 A30 RMK A01 T02770159  RH  049%=      5-min Rain = 0
KSC1 141545Z 16014G20KT 28/16 A30 RMK A01 T02760158  RH  049%=      5-min Rain = 0
KSC1 141546Z 17015KT 28/16 A30 RMK A01 T02750158  RH  049%=      5-min Rain = 0
KSC1 141547Z 17012KT 28/16 A30 RMK A01 T02750159  RH  049%=      5-min Rain = 0
KSC1 141548Z 15016KT 28/16 A30 RMK A01 T02760159  RH  049%=      5-min Rain = 0
KSC1 141549Z 15015KT 28/16 A30 RMK A01 T02770159  RH  049%=      5-min Rain = 0
KSC1 141550Z 16015G21KT 28/16 A30 RMK A01 T02770160  RH  049%=      5-min Rain = 0
KSC1 141551Z 15017KT 28/16 A30 RMK A01 T02790160  RH  048%=      5-min Rain = 0
KSC1 141552Z 16019KT 28/16 A30 RMK A01 T02810160  RH  048%=      5-min Rain = 0
KSC1 141553Z 17019KT 28/16 A30 RMK A01 T02810159  RH  047%=      5-min Rain = 0
KSC1 141554Z 17015G20KT 28/16 A30 RMK A01 T02800160  RH  048%=      5-min Rain = 0
KSC1 141555Z 18014KT 28/16 A30 RMK A01 T02810161  RH  048%=      5-min Rain = 0
KSC1 141556Z 18017KT 28/16 A30 RMK A01 T02830159  RH  047%=      5-min Rain = 0
KSC1 141557Z 18016KT 28/16 A30 RMK A01 T02820160  RH  047%=      5-min Rain = 0
KSC1 141558Z 17016KT 28/16 A30 RMK A01 T02820160  RH  047%=      5-min Rain = 0
KSC1 141559Z 17013G22KT 28/16 A30 RMK A01 T02830162  RH  048%=      5-min Rain = 0
KSC1 141600Z 17017G22KT 29/16 A30 RMK A01 T02860162  RH  047%=      5-min Rain = 0
KSC1 141601Z 17013KT 29/16 A30 RMK A01 T02870162  RH  047%=      5-min Rain = 0
KSC1 141602Z 17016G21KT 29/16 A30 RMK A01 T02870161  RH  046%=      5-min Rain = 0
KSC1 141603Z 16018G25KT 29/16 A30 RMK A01 T02870159  RH  046%=      5-min Rain = 0
KSC1 141604Z 16015G22KT 29/16 A30 RMK A01 T02860160  RH  046%=      5-min Rain = 0
KSC1 141605Z 16017KT 29/16 A30 RMK A01 T02850160  RH  047%=      5-min Rain = 0
KSC1 141606Z 17016G22KT 29/16 A30 RMK A01 T02850159  RH  047%=      5-min Rain = 0
KSC1 141607Z 17016G21KT 28/16 A30 RMK A01 T02830159  RH  047%=      5-min Rain = 0
KSC1 141608Z 16015G21KT 28/16 A30 RMK A01 T02820159  RH  047%=      5-min Rain = 0
KSC1 141609Z 18018G23KT 28/16 A30 RMK A01 T02800158  RH  048%=      5-min Rain = 0
KSC1 141610Z 17019G24KT 28/16 A30 RMK A01 T02760157  RH  048%=      5-min Rain = 0
KSC1 141611Z 17015KT 27/16 A30 RMK A01 T02740157  RH  049%=      5-min Rain = 0
KSC1 141612Z 18011G16KT 27/16 A30 RMK A01 T02730158  RH  049%=      5-min Rain = 0
KSC1 141613Z 17014KT 27/16 A30 RMK A01 T02740160  RH  050%=      5-min Rain = 0
KSC1 141614Z 16016G22KT 27/16 A30 RMK A01 T02740159  RH  049%=      5-min Rain = 0
KSC1 141615Z 16014G19KT 27/16 A30 RMK A01 T02740158  RH  049%=      5-min Rain = 0
KSC1 141616Z 15016KT 27/16 A30 RMK A01 T02740158  RH  049%=      5-min Rain = 0
KSC1 141617Z 16017G22KT 27/16 A30 RMK A01 T02740157  RH  049%=      5-min Rain = 0
KSC1 141618Z 17013G21KT 28/16 A30 RMK A01 T02760160  RH  049%=      5-min Rain = 0
KSC1 141619Z 17016KT 28/16 A30 RMK A01 T02780160  RH  048%=      5-min Rain = 0
KSC1 141620Z 18014G19KT 28/16 A30 RMK A01 T02800160  RH  048%=      5-min Rain = 0
KSC1 141621Z 17016G21KT 28/16 A30 RMK A01 T02800160  RH  048%=      5-min Rain = 0
KSC1 141622Z 17017G23KT 28/16 A30 RMK A01 T02800159  RH  048%=      5-min Rain = 0
KSC1 141623Z 17017KT 28/16 A30 RMK A01 T02790159  RH  048%=      5-min Rain = 0
KSC1 141624Z 18015G20KT 28/16 A30 RMK A01 T02790159  RH  048%=      5-min Rain = 0
KSC1 141625Z 18016G21KT 28/16 A30 RMK A01 T02780159  RH  048%=      5-min Rain = 0
KSC1 141626Z 17016G21KT 28/16 A30 RMK A01 T02780158  RH  048%=      5-min Rain = 0
KSC1 141627Z 17015KT 28/16 A30 RMK A01 T02770158  RH  048%=      5-min Rain = 0
KSC1 141628Z 18017KT 28/16 A30 RMK A01 T02770159  RH  048%=      5-min Rain = 0
KSC1 141629Z 18016KT 28/16 A30 RMK A01 T02770159  RH  048%=      5-min Rain = 0
KSC1 141630Z 18015G20KT 28/16 A30 RMK A01 T02780159  RH  048%=      5-min Rain = 0
KSC1 141631Z 18018G24KT 28/16 A30 RMK A01 T02780159  RH  048%=      5-min Rain = 0
KSC1 141632Z 17016KT 28/16 A30 RMK A01 T02790159  RH  048%=      5-min Rain = 0
KSC1 141633Z 17014KT 28/16 A30 RMK A01 T02810160  RH  048%=      5-min Rain = 0
KSC1 141634Z 17016KT 28/16 A30 RMK A01 T02820160  RH  048%=      5-min Rain = 0
KSC1 141635Z 16017G22KT 28/16 A30 RMK A01 T02820161  RH  048%=      5-min Rain = 0
KSC1 141636Z 16016G21KT 28/16 A30 RMK A01 T02830161  RH  047%=      5-min Rain = 0
KSC1 141637Z 16019G25KT 28/16 A30 RMK A01 T02840160  RH  047%=      5-min Rain = 0
KSC1 141638Z 17016G22KT 28/16 A30 RMK A01 T02840160  RH  047%=      5-min Rain = 0
KSC1 141639Z 16015G20KT 28/16 A30 RMK A01 T02840161  RH  047%=      5-min Rain = 0
KSC1 141640Z 17014G19KT 29/16 A2999 RMK A01 T02850160  RH  047%=      5-min Rain = 0
KSC1 141641Z 16015G23KT 29/16 A2999 RMK A01 T02870163  RH  047%=      5-min Rain = 0
KSC1 141642Z 16014G19KT 29/16 A2999 RMK A01 T02900163  RH  046%=      5-min Rain = 0
KSC1 141643Z 17012KT 29/17 A30 RMK A01 T02930165  RH  046%=      5-min Rain = 0
KSC1 141644Z 18014G19KT 30/17 A2999 RMK A01 T02950165  RH  046%=      5-min Rain = 0
KSC1 141645Z 17013KT 29/16 A30 RMK A01 T02940164  RH  045%=      5-min Rain = 0
KSC1 141646Z 18014G19KT 29/16 A2999 RMK A01 T02910163  RH  046%=      5-min Rain = 0
KSC1 141647Z 16014KT 29/16 A2999 RMK A01 T02880164  RH  047%=      5-min Rain = 0
KSC1 141648Z 15014KT 29/16 A2999 RMK A01 T02880163  RH  047%=      5-min Rain = 0
KSC1 141649Z 16016G21KT 29/16 A2999 RMK A01 T02880163  RH  047%=      5-min Rain = 0
KSC1 141650Z 16019KT 29/16 A2999 RMK A01 T02870161  RH  046%=      5-min Rain = 0
KSC1 141651Z 16017G22KT 29/16 A2999 RMK A01 T02870160  RH  046%=      5-min Rain = 0
KSC1 141652Z 17019G25KT 29/16 A2999 RMK A01 T02880161  RH  046%=      5-min Rain = 0
KSC1 141653Z 17016G21KT 29/16 A2999 RMK A01 T02890160  RH  046%=      5-min Rain = 0
KSC1 141654Z 18015G22KT 29/16 A2999 RMK A01 T02910163  RH  046%=      5-min Rain = 0
KSC1 141655Z 17019G26KT 30/16 A2999 RMK A01 T02950164  RH  045%=      5-min Rain = 0
KSC1 141656Z 16020KT 30/16 A2999 RMK A01 T02960161  RH  044%=      5-min Rain = 0
KSC1 141657Z 17017G23KT 30/16 A30 RMK A01 T02960163  RH  045%=      5-min Rain = 0
KSC1 141658Z 17018KT 30/16 A30 RMK A01 T02970163  RH  044%=      5-min Rain = 0
KSC1 141659Z 18020G25KT 30/16 A2999 RMK A01 T02970163  RH  044%=      5-min Rain = 0
KSC1 141700Z 17017G24KT 30/16 A2999 RMK A01 T02950162  RH  045%=      5-min Rain = 0
KSC1 141701Z 18017G22KT 30/16 A2999 RMK A01 T02960164  RH  045%=      5-min Rain = 0
KSC1 141702Z 17019KT 30/16 A2999 RMK A01 T02970164  RH  044%=      5-min Rain = 0
KSC1 141703Z 18021KT 30/16 A2999 RMK A01 T02980163  RH  044%=      5-min Rain = 0
KSC1 141704Z 18018KT 30/16 A2999 RMK A01 T02990163  RH  044%=      5-min Rain = 0
KSC1 141705Z 19015G21KT 30/16 A2999 RMK A01 T02990163  RH  044%=      5-min Rain = 0
KSC1 141706Z 17016G25KT 30/16 A2999 RMK A01 T03000164  RH  044%=      5-min Rain = 0
KSC1 141707Z 17019KT 30/16 A2999 RMK A01 T03010163  RH  044%=      5-min Rain = 0
KSC1 141708Z 16020G25KT 30/16 A2999 RMK A01 T03000162  RH  043%=      5-min Rain = 0
KSC1 141709Z 18020G28KT 30/16 A2999 RMK A01 T02990162  RH  044%=      5-min Rain = 0
KSC1 141710Z 18019G27KT 30/16 A2999 RMK A01 T02970160  RH  043%=      5-min Rain = 0
KSC1 141711Z 17016KT 30/16 A2999 RMK A01 T02960161  RH  044%=      5-min Rain = 0
KSC1 141712Z 16015KT 30/16 A2999 RMK A01 T02980162  RH  044%=      5-min Rain = 0
KSC1 141713Z 16018KT 30/16 A2999 RMK A01 T02990163  RH  044%=      5-min Rain = 0
KSC1 141714Z 16015G21KT 30/16 A2999 RMK A01 T03000164  RH  044%=      5-min Rain = 0
KSC1 141715Z 17017KT 30/16 A2999 RMK A01 T03000163  RH  044%=      5-min Rain = 0
KSC1 141716Z 17017G22KT 30/16 A2999 RMK A01 T03000164  RH  044%=      5-min Rain = 0
KSC1 141717Z 17017G22KT 30/16 A2999 RMK A01 T02990164  RH  044%=      5-min Rain = 0
KSC1 141718Z 17013G18KT 30/17 A2999 RMK A01 T02990166  RH  045%=      5-min Rain = 0
KSC1 141719Z 17016G21KT 30/17 A2999 RMK A01 T03030168  RH  044%=      5-min Rain = 0
KSC1 141720Z 18012KT 31/17 A2999 RMK A01 T03060168  RH  044%=      5-min Rain = 0
KSC1 141721Z 17015G20KT 31/17 A2999 RMK A01 T03090168  RH  043%=      5-min Rain = 0
KSC1 141722Z 18015G20KT 31/17 A2999 RMK A01 T03100167  RH  042%=      5-min Rain = 0
KSC1 141723Z 17017KT 31/17 A2999 RMK A01 T03090166  RH  042%=      5-min Rain = 0
KSC1 141724Z 17012G17KT 31/17 A2999 RMK A01 T03090166  RH  042%=      5-min Rain = 0
KSC1 141725Z 18013KT 31/17 A2999 RMK A01 T03110168  RH  042%=      5-min Rain = 0
KSC1 141726Z 17015KT 31/17 A2999 RMK A01 T03120167  RH  042%=      5-min Rain = 0
KSC1 141727Z 16017G23KT 31/17 A2998 RMK A01 T03110166  RH  042%=      5-min Rain = 0
KSC1 141728Z 17014G20KT 31/17 A2998 RMK A01 T03110166  RH  042%=      5-min Rain = 0
KSC1 141729Z 15018KT 31/17 A2998 RMK A01 T03110165  RH  041%=      5-min Rain = 0
KSC1 141730Z 15019G24KT 31/17 A2998 RMK A01 T03120165  RH  041%=      5-min Rain = 0
KSC1 141731Z 16018G23KT 31/16 A2998 RMK A01 T03110163  RH  041%=      5-min Rain = 0
KSC1 141732Z 17017KT 31/16 A2998 RMK A01 T03090163  RH  041%=      5-min Rain = 0
KSC1 141733Z 17017KT 31/16 A2998 RMK A01 T03090163  RH  041%=      5-min Rain = 0
KSC1 141734Z 17018KT 31/16 A2998 RMK A01 T03100164  RH  041%=      5-min Rain = 0
KSC1 141735Z 17014KT 31/16 A2998 RMK A01 T03100164  RH  041%=      5-min Rain = 0
KSC1 141736Z 17018G23KT 31/16 A2998 RMK A01 T03090162  RH  041%=      5-min Rain = 0
KSC1 141737Z 16016G23KT 31/16 A2998 RMK A01 T03100160  RH  041%=      5-min Rain = 0
KSC1 141738Z 16018G23KT 31/16 A2998 RMK A01 T03110162  RH  041%=      5-min Rain = 0
KSC1 141739Z 17019G24KT 31/16 A2998 RMK A01 T03130161  RH  040%=      5-min Rain = 0
KSC1 141740Z 17018G24KT 31/16 A2998 RMK A01 T03120159  RH  040%=      5-min Rain = 0
KSC1 141741Z 17018G26KT 31/16 A2998 RMK A01 T03100160  RH  040%=      5-min Rain = 0
KSC1 141742Z 17017G25KT 31/16 A2998 RMK A01 T03100161  RH  041%=      5-min Rain = 0
KSC1 141743Z 16018G24KT 31/16 A2998 RMK A01 T03100159  RH  040%=      5-min Rain = 0
KSC1 141744Z 17018KT 31/16 A2998 RMK A01 T03090160  RH  041%=      5-min Rain = 0
KSC1 141745Z 17014G20KT 31/16 A2998 RMK A01 T03080161  RH  041%=      5-min Rain = 0
KSC1 141746Z 16016G22KT 31/16 A2998 RMK A01 T03080163  RH  042%=      5-min Rain = 0
KSC1 141747Z 16015KT 31/16 A2998 RMK A01 T03110162  RH  041%=      5-min Rain = 0
KSC1 141748Z 18017G27KT 31/16 A2998 RMK A01 T03120163  RH  041%=      5-min Rain = 0
KSC1 141749Z 18017KT 32/16 A2998 RMK A01 T03150161  RH  040%=      5-min Rain = 0
KSC1 141750Z 18017KT 32/16 A2998 RMK A01 T03150160  RH  039%=      5-min Rain = 0
KSC1 141751Z 18016KT 31/16 A2997 RMK A01 T03130160  RH  040%=      5-min Rain = 0
KSC1 141752Z 17018KT 31/16 A2998 RMK A01 T03120161  RH  040%=      5-min Rain = 0
KSC1 141753Z 17019G24KT 31/16 A2998 RMK A01 T03130160  RH  040%=      5-min Rain = 0
KSC1 141754Z 16016G23KT 31/16 A2997 RMK A01 T03130160  RH  040%=      5-min Rain = 0
KSC1 141755Z 16013KT 31/16 A2997 RMK A01 T03130161  RH  040%=      5-min Rain = 0
KSC1 141756Z 16015G23KT 31/16 A2997 RMK A01 T03130163  RH  041%=      5-min Rain = 0
KSC1 141757Z 17019G24KT 31/16 A2997 RMK A01 T03130163  RH  040%=      5-min Rain = 0
KSC1 141758Z 17016G22KT 31/16 A2997 RMK A01 T03130162  RH  040%=      5-min Rain = 0
KSC1 141759Z 18015G20KT 31/16 A2997 RMK A01 T03130163  RH  041%=      5-min Rain = 0
KSC1 141800Z 17015KT 31/16 A2997 RMK A01 T03130163  RH  040%=      5-min Rain = 0
KSC1 141801Z 17015G21KT 32/16 A2997 RMK A01 T03150164  RH  040%=      5-min Rain = 0
KSC1 141802Z 17016KT 32/16 A2997 RMK A01 T03170162  RH  039%=      5-min Rain = 0
KSC1 141803Z 18015KT 32/16 A2997 RMK A01 T03150163  RH  040%=      5-min Rain = 0
KSC1 141804Z 19016G23KT 32/16 A2997 RMK A01 T03150164  RH  040%=      5-min Rain = 0
KSC1 141805Z 18020G25KT 32/16 A2997 RMK A01 T03150161  RH  039%=      5-min Rain = 0
KSC1 141806Z 18019KT 31/16 A2997 RMK A01 T03110159  RH  040%=      5-min Rain = 0
KSC1 141807Z 18015G20KT 31/16 A2997 RMK A01 T03070159  RH  041%=      5-min Rain = 0
KSC1 141808Z 18011KT 31/16 A2997 RMK A01 T03070160  RH  041%=      5-min Rain = 0
KSC1 141809Z 18014G20KT 31/16 A2997 RMK A01 T03100164  RH  041%=      5-min Rain = 0
KSC1 141810Z 16016KT 31/16 A2997 RMK A01 T03130164  RH  041%=      5-min Rain = 0
KSC1 141811Z 16015G20KT 31/16 A2997 RMK A01 T03130162  RH  040%=      5-min Rain = 0
KSC1 141812Z 17016KT 31/16 A2997 RMK A01 T03120163  RH  041%=      5-min Rain = 0
KSC1 141813Z 17014KT 31/17 A2997 RMK A01 T03120165  RH  041%=      5-min Rain = 0
KSC1 141814Z 17012KT 32/17 A2997 RMK A01 T03150167  RH  041%=      5-min Rain = 0
KSC1 141815Z 17012G20KT 32/17 A2997 RMK A01 T03180170  RH  041%=      5-min Rain = 0
KSC1 141816Z 18020KT 32/17 A2997 RMK A01 T03220167  RH  039%=      5-min Rain = 0
KSC1 141817Z 18018KT 32/16 A2996 RMK A01 T03190163  RH  039%=      5-min Rain = 0
KSC1 141818Z 18019KT 32/16 A2997 RMK A01 T03160163  RH  040%=      5-min Rain = 0
KSC1 141819Z 18018KT 31/16 A2997 RMK A01 T03130162  RH  040%=      5-min Rain = 0
KSC1 141820Z 18019KT 31/16 A2997 RMK A01 T03130163  RH  041%=      5-min Rain = 0
KSC1 141821Z 18015KT 31/16 A2997 RMK A01 T03120164  RH  041%=      5-min Rain = 0
KSC1 141822Z 18015KT 31/17 A2996 RMK A01 T03120166  RH  041%=      5-min Rain = 0
KSC1 141823Z 18018G23KT 32/17 A2996 RMK A01 T03150166  RH  041%=      5-min Rain = 0
KSC1 141824Z 18019KT 32/16 A2996 RMK A01 T03160164  RH  040%=      5-min Rain = 0
KSC1 141825Z 16019KT 32/16 A2996 RMK A01 T03150164  RH  040%=      5-min Rain = 0
KSC1 141826Z 16020G26KT 32/16 A2996 RMK A01 T03150164  RH  040%=      5-min Rain = 0
KSC1 141827Z 16020KT 32/16 A2996 RMK A01 T03160164  RH  040%=      5-min Rain = 0
KSC1 141828Z 16015G20KT 32/16 A2996 RMK A01 T03160163  RH  040%=      5-min Rain = 0
KSC1 141829Z 15015KT 32/16 A2996 RMK A01 T03170164  RH  040%=      5-min Rain = 0
KSC1 141830Z 16016KT 32/16 A2996 RMK A01 T03170163  RH  040%=      5-min Rain = 0
KSC1 141831Z 18013KT 32/17 A2996 RMK A01 T03180166  RH  040%=      5-min Rain = 0
KSC1 141832Z 17017KT 32/17 A2996 RMK A01 T03220165  RH  039%=      5-min Rain = 0
KSC1 141833Z 17013G19KT 32/16 A2996 RMK A01 T03210163  RH  039%=      5-min Rain = 0
KSC1 141834Z 16014G23KT 32/17 A2996 RMK A01 T03200165  RH  039%=      5-min Rain = 0
KSC1 141835Z 16017G25KT 32/16 A2996 RMK A01 T03220164  RH  039%=      5-min Rain = 0
KSC1 141836Z 18014KT 32/17 A2996 RMK A01 T03220165  RH  039%=      5-min Rain = 0
KSC1 141837Z 18017KT 33/17 A2996 RMK A01 T03250166  RH  039%=      5-min Rain = 0
KSC1 141838Z 18017KT 32/16 A2995 RMK A01 T03240163  RH  038%=      5-min Rain = 0
KSC1 141839Z 18018KT 32/16 A2995 RMK A01 T03220161  RH  038%=      5-min Rain = 0
KSC1 141840Z 19016G21KT 32/16 A2995 RMK A01 T03190161  RH  039%=      5-min Rain = 0
KSC1 141841Z 19016KT 32/16 A2995 RMK A01 T03200163  RH  039%=      5-min Rain = 0
KSC1 141842Z 18013KT 32/17 A2995 RMK A01 T03200165  RH  040%=      5-min Rain = 0
KSC1 141843Z 17014KT 32/17 A2995 RMK A01 T03190166  RH  040%=      5-min Rain = 0
KSC1 141844Z 17017G23KT 32/17 A2995 RMK A01 T03210166  RH  039%=      5-min Rain = 0
KSC1 141845Z 17018KT 32/17 A2995 RMK A01 T03210166  RH  039%=      5-min Rain = 0
KSC1 141846Z 16019G24KT 32/16 A2995 RMK A01 T03210164  RH  039%=      5-min Rain = 0
KSC1 141847Z 16015G20KT 32/17 A2995 RMK A01 T03200165  RH  039%=      5-min Rain = 0
KSC1 141848Z 15016G24KT 32/17 A2995 RMK A01 T03240165  RH  039%=      5-min Rain = 0
KSC1 141849Z 17015KT 33/16 A2995 RMK A01 T03250164  RH  038%=      5-min Rain = 0
KSC1 141850Z 17017G24KT 33/17 A2995 RMK A01 T03270165  RH  038%=      5-min Rain = 0
KSC1 141851Z 17020G25KT 33/16 A2995 RMK A01 T03270162  RH  037%=      5-min Rain = 0
KSC1 141852Z 18019G26KT 32/16 A2995 RMK A01 T03220161  RH  038%=      5-min Rain = 0
KSC1 141853Z 17018KT 32/16 A2995 RMK A01 T03210162  RH  039%=      5-min Rain = 0
KSC1 141854Z 18017G23KT 32/16 A2995 RMK A01 T03210162  RH  039%=      5-min Rain = 0
KSC1 141855Z 17016G22KT 32/16 A2995 RMK A01 T03220162  RH  038%=      5-min Rain = 0
KSC1 141856Z 18020KT 33/16 A2995 RMK A01 T03250163  RH  038%=      5-min Rain = 0
KSC1 141857Z 16015KT 33/16 A2995 RMK A01 T03250162  RH  038%=      5-min Rain = 0
KSC1 141858Z 17019KT 33/16 A2995 RMK A01 T03260163  RH  038%=      5-min Rain = 0
KSC1 141859Z 17018G26KT 33/16 A2994 RMK A01 T03260162  RH  037%=      5-min Rain = 0
KSC1 141900Z 16015KT 33/16 A2994 RMK A01 T03250163  RH  038%=      5-min Rain = 0
KSC1 141901Z 16013G19KT 33/16 A2994 RMK A01 T03270164  RH  038%=      5-min Rain = 0
KSC1 141902Z 16014G19KT 33/17 A2994 RMK A01 T03300165  RH  037%=      5-min Rain = 0
KSC1 141903Z 17016G22KT 33/16 A2994 RMK A01 T03320164  RH  037%=      5-min Rain = 0
KSC1 141904Z 18016G25KT 33/16 A2994 RMK A01 T03330164  RH  037%=      5-min Rain = 0
KSC1 141905Z 17021KT 33/16 A2994 RMK A01 T03320161  RH  036%=      5-min Rain = 0
KSC1 141906Z 18020G25KT 33/16 A2994 RMK A01 T03270161  RH  037%=      5-min Rain = 0
KSC1 141907Z 18020KT 33/16 A2994 RMK A01 T03250162  RH  038%=      5-min Rain = 0
KSC1 141908Z 17017G22KT 32/16 A2994 RMK A01 T03230162  RH  038%=      5-min Rain = 0
KSC1 141909Z 17018KT 32/16 A2994 RMK A01 T03210163  RH  039%=      5-min Rain = 0
KSC1 141910Z 17014KT 32/16 A2994 RMK A01 T03200164  RH  039%=      5-min Rain = 0
KSC1 141911Z 17017G23KT 32/17 A2994 RMK A01 T03230167  RH  039%=      5-min Rain = 0
KSC1 141912Z 17013KT 33/17 A2993 RMK A01 T03280166  RH  038%=      5-min Rain = 0
KSC1 141913Z 16016G23KT 33/17 A2993 RMK A01 T03320167  RH  037%=      5-min Rain = 0
KSC1 141914Z 16018G23KT 33/16 A2993 RMK A01 T03340163  RH  036%=      5-min Rain = 0
KSC1 141915Z 17017G26KT 33/16 A2993 RMK A01 T03340161  RH  036%=      5-min Rain = 0
KSC1 141916Z 16014G21KT 33/16 A2994 RMK A01 T03320164  RH  037%=      5-min Rain = 0
KSC1 141917Z 17018G23KT 33/16 A2993 RMK A01 T03340161  RH  036%=      5-min Rain = 0
KSC1 141918Z 18019KT 33/16 A2993 RMK A01 T03340161  RH  036%=      5-min Rain = 0
KSC1 141919Z 18017KT 33/16 A2993 RMK A01 T03300160  RH  036%=      5-min Rain = 0
KSC1 141920Z 17015KT 33/16 A2993 RMK A01 T03280163  RH  037%=      5-min Rain = 0
KSC1 141921Z 18016G21KT 33/17 A2993 RMK A01 T03320165  RH  037%=      5-min Rain = 0
KSC1 141922Z 18017G22KT 33/16 A2993 RMK A01 T03330162  RH  036%=      5-min Rain = 0
KSC1 141923Z 17018G23KT 33/16 A2993 RMK A01 T03310163  RH  037%=      5-min Rain = 0
KSC1 141924Z 17016KT 33/16 A2993 RMK A01 T03310164  RH  037%=      5-min Rain = 0
KSC1 141925Z 17012G19KT 33/17 A2993 RMK A01 T03330168  RH  037%=      5-min Rain = 0
KSC1 141926Z 18016KT 34/17 A2993 RMK A01 T03360166  RH  036%=      5-min Rain = 0
KSC1 141927Z 17013G18KT 34/17 A2993 RMK A01 T03360167  RH  036%=      5-min Rain = 0
KSC1 141928Z 17020G25KT 34/17 A2993 RMK A01 T03360168  RH  037%=      5-min Rain = 0
KSC1 141929Z 17017G23KT 33/17 A2993 RMK A01 T03340166  RH  037%=      5-min Rain = 0
KSC1 141930Z 18013KT 33/17 A2993 RMK A01 T03320166  RH  037%=      5-min Rain = 0
KSC1 141931Z 17018G23KT 33/17 A2992 RMK A01 T03310167  RH  037%=      5-min Rain = 0
KSC1 141932Z 17016G22KT 33/17 A2992 RMK A01 T03320167  RH  037%=      5-min Rain = 0
KSC1 141933Z 17021G26KT 33/17 A2992 RMK A01 T03330166  RH  037%=      5-min Rain = 0
KSC1 141934Z 17017G23KT 33/16 A2992 RMK A01 T03330164  RH  036%=      5-min Rain = 0
KSC1 141935Z 17016G22KT 33/17 A2992 RMK A01 T03320165  RH  037%=      5-min Rain = 0
KSC1 141936Z 17019KT 33/17 A2992 RMK A01 T03320165  RH  037%=      5-min Rain = 0
KSC1 141937Z 17015KT 33/17 A2992 RMK A01 T03330166  RH  037%=      5-min Rain = 0
KSC1 141938Z 17015KT 34/17 A2992 RMK A01 T03360167  RH  037%=      5-min Rain = 0
KSC1 141939Z 17014G22KT 34/17 A2992 RMK A01 T03380166  RH  036%=      5-min Rain = 0
KSC1 141940Z 15017G22KT 34/17 A2992 RMK A01 T03380166  RH  036%=      5-min Rain = 0
KSC1 141941Z 16020G26KT 34/17 A2992 RMK A01 T03390165  RH  036%=      5-min Rain = 0
KSC1 141942Z 16020KT 34/16 A2992 RMK A01 T03360162  RH  035%=      5-min Rain = 0
KSC1 141943Z 16020KT 33/16 A2992 RMK A01 T03340164  RH  036%=      5-min Rain = 0
KSC1 141944Z 17018KT 33/16 A2992 RMK A01 T03330164  RH  036%=      5-min Rain = 0
KSC1 141945Z 16018KT 33/16 A2992 RMK A01 T03320164  RH  036%=      5-min Rain = 0
KSC1 141946Z 17015G21KT 33/17 A2992 RMK A01 T03330166  RH  037%=      5-min Rain = 0
KSC1 141947Z 17018KT 34/16 A2992 RMK A01 T03370164  RH  036%=      5-min Rain = 0
KSC1 141948Z 18013G21KT 34/16 A2992 RMK A01 T03370164  RH  036%=      5-min Rain = 0
KSC1 141949Z 18017G23KT 34/16 A2992 RMK A01 T03380162  RH  035%=      5-min Rain = 0
KSC1 141950Z 17018KT 34/16 A2992 RMK A01 T03350163  RH  036%=      5-min Rain = 0
KSC1 141951Z 17017G22KT 34/16 A2992 RMK A01 T03350164  RH  036%=      5-min Rain = 0
KSC1 141952Z 18017G23KT 34/16 A2992 RMK A01 T03360164  RH  036%=      5-min Rain = 0
KSC1 141953Z 18017KT 34/17 A2992 RMK A01 T03370166  RH  036%=      5-min Rain = 0
KSC1 141954Z 18016G22KT 34/17 A2992 RMK A01 T03370167  RH  036%=      5-min Rain = 0
KSC1 141955Z 16015G23KT 34/17 A2992 RMK A01 T03370167  RH  036%=      5-min Rain = 0
KSC1 141956Z 16017G22KT 34/17 A2992 RMK A01 T03370167  RH  036%=      5-min Rain = 0
KSC1 141957Z 16019G24KT 34/17 A2992 RMK A01 T03380165  RH  036%=      5-min Rain = 0
KSC1 141958Z 17016G21KT 34/17 A2992 RMK A01 T03370167  RH  036%=      5-min Rain = 0
KSC1 141959Z 16013KT 34/17 A2992 RMK A01 T03380167  RH  036%=      5-min Rain = 0
KSC1 142000Z 16014G21KT 34/17 A2992 RMK A01 T03390168  RH  036%=      5-min Rain = 0
KSC1 142001Z 17018G23KT 34/17 A2991 RMK A01 T03390165  RH  035%=      5-min Rain = 0
KSC1 142002Z 17016G22KT 34/16 A2991 RMK A01 T03380163  RH  035%=      5-min Rain = 0
KSC1 142003Z 17018KT 34/16 A2991 RMK A01 T03360162  RH  035%=      5-min Rain = 0
KSC1 142004Z 17019G25KT 34/17 A2991 RMK A01 T03360165  RH  036%=      5-min Rain = 0
KSC1 142005Z 19018KT 34/17 A2991 RMK A01 T03350165  RH  036%=      5-min Rain = 0
KSC1 142006Z 17015G20KT 33/17 A2991 RMK A01 T03340168  RH  037%=      5-min Rain = 0
KSC1 142007Z 16020KT 34/17 A2991 RMK A01 T03360166  RH  036%=      5-min Rain = 0
KSC1 142008Z 17016G21KT 34/17 A2991 RMK A01 T03370165  RH  036%=      5-min Rain = 0
KSC1 142009Z 18016KT 34/16 A2991 RMK A01 T03390164  RH  035%=      5-min Rain = 0
KSC1 142010Z 18017G22KT 34/16 A2991 RMK A01 T03380164  RH  035%=      5-min Rain = 0
KSC1 142011Z 17013KT 34/16 A2991 RMK A01 T03390164  RH  035%=      5-min Rain = 0
KSC1 142012Z 19015G20KT 34/16 A2991 RMK A01 T03400164  RH  035%=      5-min Rain = 0
KSC1 142013Z 18014G20KT 34/17 A2991 RMK A01 T03410165  RH  035%=      5-min Rain = 0
KSC1 142014Z 18013KT 34/17 A2991 RMK A01 T03430166  RH  035%=      5-min Rain = 0
KSC1 142015Z 17017KT 35/16 A2991 RMK A01 T03450164  RH  034%=      5-min Rain = 0
KSC1 142016Z 18014KT 34/16 A2991 RMK A01 T03440163  RH  034%=      5-min Rain = 0
KSC1 142017Z 16015G20KT 34/16 A2991 RMK A01 T03440164  RH  034%=      5-min Rain = 0
KSC1 142018Z 16018KT 35/16 A2991 RMK A01 T03450163  RH  034%=      5-min Rain = 0
KSC1 142019Z 16016KT 34/16 A2991 RMK A01 T03430163  RH  034%=      5-min Rain = 0
KSC1 142020Z 16017G22KT 34/17 A2991 RMK A01 T03410165  RH  035%=      5-min Rain = 0
KSC1 142021Z 17015G20KT 34/17 A2991 RMK A01 T03410166  RH  035%=      5-min Rain = 0
KSC1 142022Z 15020G25KT 34/17 A2991 RMK A01 T03410166  RH  035%=      5-min Rain = 0
KSC1 142023Z 16017KT 34/16 A2991 RMK A01 T03400164  RH  035%=      5-min Rain = 0
KSC1 142024Z 16018G25KT 34/16 A2991 RMK A01 T03400162  RH  035%=      5-min Rain = 0
KSC1 142025Z 16016KT 34/16 A2991 RMK A01 T03380161  RH  035%=      5-min Rain = 0
KSC1 142026Z 17019KT 34/16 A2991 RMK A01 T03380161  RH  035%=      5-min Rain = 0
KSC1 142027Z 17014G19KT 34/16 A299 RMK A01 T03390162  RH  035%=      5-min Rain = 0
KSC1 142028Z 19014G19KT 34/16 A299 RMK A01 T03410164  RH  035%=      5-min Rain = 0
KSC1 142029Z 17013G19KT 34/17 A299 RMK A01 T03410165  RH  035%=      5-min Rain = 0
KSC1 142030Z 16013G19KT 34/17 A299 RMK A01 T03420169  RH  036%=      5-min Rain = 0
KSC1 142031Z 16018G25KT 34/17 A299 RMK A01 T03440167  RH  035%=      5-min Rain = 0
KSC1 142032Z 17018G23KT 34/16 A299 RMK A01 T03420163  RH  034%=      5-min Rain = 0
KSC1 142033Z 17018KT 34/16 A299 RMK A01 T03400163  RH  035%=      5-min Rain = 0
KSC1 142034Z 16017KT 34/16 A299 RMK A01 T03390163  RH  035%=      5-min Rain = 0
KSC1 142035Z 16015G21KT 34/16 A299 RMK A01 T03380162  RH  035%=      5-min Rain = 0
KSC1 142036Z 17015G23KT 34/16 A299 RMK A01 T03390164  RH  035%=      5-min Rain = 0
KSC1 142037Z 17020G25KT 34/17 A299 RMK A01 T03410165  RH  035%=      5-min Rain = 0
KSC1 142038Z 17016KT 34/16 A299 RMK A01 T03380164  RH  035%=      5-min Rain = 0
KSC1 142039Z 16016KT 34/16 A299 RMK A01 T03360164  RH  036%=      5-min Rain = 0
KSC1 142040Z 17016G22KT 34/16 A299 RMK A01 T03380164  RH  035%=      5-min Rain = 0
KSC1 142041Z 16014G19KT 34/16 A299 RMK A01 T03410164  RH  035%=      5-min Rain = 0
KSC1 142042Z 15015KT 34/16 A299 RMK A01 T03430163  RH  034%=      5-min Rain = 0
KSC1 142043Z 16014KT 35/16 A299 RMK A01 T03450163  RH  034%=      5-min Rain = 0
KSC1 142044Z 16015G20KT 35/17 A299 RMK A01 T03450165  RH  034%=      5-min Rain = 0
KSC1 142045Z 16018G23KT 35/16 A299 RMK A01 T03450163  RH  034%=      5-min Rain = 0
KSC1 142046Z 17017KT 34/16 A299 RMK A01 T03430162  RH  034%=      5-min Rain = 0
KSC1 142047Z 16015KT 34/16 A299 RMK A01 T03420164  RH  035%=      5-min Rain = 0
KSC1 142048Z 16013G18KT 34/16 A299 RMK A01 T03410164  RH  035%=      5-min Rain = 0
KSC1 142049Z 15013G18KT 34/17 A299 RMK A01 T03400166  RH  035%=      5-min Rain = 0
KSC1 142050Z 17013KT 34/17 A299 RMK A01 T03420167  RH  035%=      5-min Rain = 0
KSC1 142051Z 18011G17KT 34/17 A299 RMK A01 T03430169  RH  036%=      5-min Rain = 0
KSC1 142052Z 17012G17KT 35/17 A299 RMK A01 T03450169  RH  035%=      5-min Rain = 0
KSC1 142053Z 17018G23KT 35/17 A299 RMK A01 T03480170  RH  035%=      5-min Rain = 0
KSC1 142054Z 17015KT 35/17 A299 RMK A01 T03450167  RH  035%=      5-min Rain = 0
KSC1 142055Z 16014G19KT 34/17 A299 RMK A01 T03420168  RH  036%=      5-min Rain = 0
KSC1 142056Z 15013G18KT 34/17 A299 RMK A01 T03440169  RH  035%=      5-min Rain = 0
KSC1 142057Z 15015G20KT 35/17 A299 RMK A01 T03460169  RH  035%=      5-min Rain = 0
KSC1 142058Z 15015KT 35/17 A2989 RMK A01 T03460168  RH  035%=      5-min Rain = 0
KSC1 142059Z 18018G24KT 35/16 A299 RMK A01 T03450164  RH  034%=      5-min Rain = 0
KSC1 142100Z 18015G21KT 34/16 A299 RMK A01 T03420161  RH  034%=      5-min Rain = 0
KSC1 142101Z 17014G19KT 34/16 A299 RMK A01 T03420163  RH  034%=      5-min Rain = 0
KSC1 142102Z 16016G24KT 34/16 A2989 RMK A01 T03410163  RH  035%=      5-min Rain = 0
KSC1 142103Z 16018G23KT 34/16 A299 RMK A01 T03410161  RH  034%=      5-min Rain = 0
KSC1 142104Z 15015G20KT 34/16 A299 RMK A01 T03420159  RH  034%=      5-min Rain = 0
KSC1 142105Z 16014KT 34/16 A2989 RMK A01 T03430157  RH  033%=      5-min Rain = 0
KSC1 142106Z 17016KT 35/16 A2989 RMK A01 T03450161  RH  033%=      5-min Rain = 0
KSC1 142107Z 17015KT 34/16 A2989 RMK A01 T03440162  RH  034%=      5-min Rain = 0
KSC1 142108Z 15012KT 34/16 A2989 RMK A01 T03430164  RH  034%=      5-min Rain = 0
KSC1 142109Z 16013KT 35/16 A2989 RMK A01 T03460162  RH  033%=      5-min Rain = 0
KSC1 142110Z 16014G20KT 35/16 A2989 RMK A01 T03480162  RH  033%=      5-min Rain = 0
KSC1 142111Z 16019G24KT 35/16 A2989 RMK A01 T03470162  RH  033%=      5-min Rain = 0
KSC1 142112Z 16016G24KT 35/16 A2989 RMK A01 T03450161  RH  034%=      5-min Rain = 0
KSC1 142113Z 17015G20KT 35/17 A2989 RMK A01 T03460165  RH  034%=      5-min Rain = 0
KSC1 142114Z 17013KT 35/17 A2989 RMK A01 T03470165  RH  034%=      5-min Rain = 0
KSC1 142115Z 17015KT 35/16 A2989 RMK A01 T03460163  RH  034%=      5-min Rain = 0
KSC1 142116Z 16014G19KT 34/16 A2989 RMK A01 T03440162  RH  034%=      5-min Rain = 0
KSC1 142117Z 17014KT 34/16 A2989 RMK A01 T03440163  RH  034%=      5-min Rain = 0
KSC1 142118Z 18019KT 34/16 A2989 RMK A01 T03440158  RH  033%=      5-min Rain = 0
KSC1 142119Z 18015KT 35/16 A2989 RMK A01 T03450157  RH  032%=      5-min Rain = 0
KSC1 142120Z 17017KT 35/16 A2989 RMK A01 T03450155  RH  032%=      5-min Rain = 0
KSC1 142121Z 17013KT 34/16 A2989 RMK A01 T03430157  RH  033%=      5-min Rain = 0
KSC1 142122Z 18011KT 34/16 A2989 RMK A01 T03420163  RH  034%=      5-min Rain = 0
KSC1 142123Z 16016G21KT 35/17 A2989 RMK A01 T03450166  RH  035%=      5-min Rain = 0
KSC1 142124Z 16014G19KT 35/17 A2989 RMK A01 T03460166  RH  034%=      5-min Rain = 0
KSC1 142125Z 16015G22KT 35/17 A2988 RMK A01 T03450167  RH  035%=      5-min Rain = 0
KSC1 142126Z 15017G22KT 35/17 A2988 RMK A01 T03450167  RH  035%=      5-min Rain = 0
KSC1 142127Z 14018KT 35/17 A2988 RMK A01 T03450166  RH  034%=      5-min Rain = 0
KSC1 142128Z 15014G19KT 34/16 A2988 RMK A01 T03430164  RH  035%=      5-min Rain = 0
KSC1 142129Z 15018KT 34/17 A2988 RMK A01 T03420166  RH  035%=      5-min Rain = 0
KSC1 142130Z 16015G22KT 34/17 A2988 RMK A01 T03430165  RH  035%=      5-min Rain = 0
KSC1 142131Z 16015KT 34/17 A2988 RMK A01 T03440165  RH  035%=      5-min Rain = 0
KSC1 142132Z 16018KT 34/16 A2988 RMK A01 T03430162  RH  034%=      5-min Rain = 0
KSC1 142133Z 17017G22KT 34/15 A2988 RMK A01 T03440153  RH  032%=      5-min Rain = 0
KSC1 142134Z 16014G19KT 34/16 A2988 RMK A01 T03430158  RH  033%=      5-min Rain = 0
KSC1 142135Z 16013KT 34/16 A2988 RMK A01 T03430163  RH  034%=      5-min Rain = 0
KSC1 142136Z 16019KT 35/16 A2988 RMK A01 T03450159  RH  033%=      5-min Rain = 0
KSC1 142137Z 18016KT 35/15 A2988 RMK A01 T03450153  RH  032%=      5-min Rain = 0
KSC1 142138Z 18016KT 34/15 A2988 RMK A01 T03440153  RH  032%=      5-min Rain = 0
KSC1 142139Z 17019KT 34/16 A2988 RMK A01 T03430155  RH  032%=      5-min Rain = 0
KSC1 142140Z 16016KT 34/16 A2988 RMK A01 T03410157  RH  033%=      5-min Rain = 0
KSC1 142141Z 15013KT 34/16 A2988 RMK A01 T03390159  RH  034%=      5-min Rain = 0
KSC1 142142Z 16015KT 34/16 A2988 RMK A01 T03390161  RH  034%=      5-min Rain = 0
KSC1 142143Z 17011KT 34/17 A2988 RMK A01 T03410165  RH  035%=      5-min Rain = 0
KSC1 142144Z 18011G16KT 34/17 A2988 RMK A01 T03440166  RH  035%=      5-min Rain = 0
KSC1 142145Z 16013G19KT 34/17 A2988 RMK A01 T03430166  RH  035%=      5-min Rain = 0
KSC1 142146Z 16017G24KT 35/17 A2988 RMK A01 T03450168  RH  035%=      5-min Rain = 0
KSC1 142147Z 17014KT 35/17 A2988 RMK A01 T03470166  RH  034%=      5-min Rain = 0
KSC1 142148Z 17014G19KT 35/16 A2988 RMK A01 T03470164  RH  034%=      5-min Rain = 0
KSC1 142149Z 16012KT 35/16 A2988 RMK A01 T03460164  RH  034%=      5-min Rain = 0
KSC1 142150Z 18013G21KT 35/17 A2988 RMK A01 T03460165  RH  034%=      5-min Rain = 0
KSC1 142151Z 17015G21KT 35/16 A2988 RMK A01 T03460163  RH  034%=      5-min Rain = 0
KSC1 142152Z 17015KT 35/16 A2988 RMK A01 T03450163  RH  034%=      5-min Rain = 0
KSC1 142153Z 17015KT 35/16 A2988 RMK A01 T03450161  RH  033%=      5-min Rain = 0
KSC1 142154Z 18015KT 35/16 A2988 RMK A01 T03450160  RH  033%=      5-min Rain = 0
KSC1 142155Z 18013G19KT 35/16 A2988 RMK A01 T03460156  RH  032%=      5-min Rain = 0
KSC1 142156Z 18015KT 34/16 A2988 RMK A01 T03440156  RH  033%=      5-min Rain = 0
KSC1 142157Z 16017KT 34/16 A2988 RMK A01 T03430160  RH  033%=      5-min Rain = 0
KSC1 142158Z 16017KT 34/16 A2988 RMK A01 T03420160  RH  034%=      5-min Rain = 0
KSC1 142159Z 15017G22KT 34/16 A2988 RMK A01 T03410160  RH  034%=      5-min Rain = 0
KSC1 142200Z 15016KT 34/16 A2988 RMK A01 T03400161  RH  034%=      5-min Rain = 0
KSC1 142201Z 16014KT 34/16 A2988 RMK A01 T03400161  RH  034%=      5-min Rain = 0
KSC1 142202Z 15015G21KT 34/16 A2988 RMK A01 T03400162  RH  035%=      5-min Rain = 0
KSC1 142203Z 16018G23KT 34/16 A2988 RMK A01 T03420164  RH  035%=      5-min Rain = 0
KSC1 142204Z 17016G22KT 34/16 A2988 RMK A01 T03430162  RH  034%=      5-min Rain = 0
KSC1 142205Z 17015G21KT 34/16 A2988 RMK A01 T03420162  RH  034%=      5-min Rain = 0
KSC1 142206Z 16016G21KT 34/16 A2988 RMK A01 T03420159  RH  034%=      5-min Rain = 0
KSC1 142207Z 16012KT 34/16 A2988 RMK A01 T03410159  RH  034%=      5-min Rain = 0
KSC1 142208Z 17016G22KT 34/16 A2988 RMK A01 T03430162  RH  034%=      5-min Rain = 0
KSC1 142209Z 16015G20KT 34/16 A2988 RMK A01 T03440161  RH  034%=      5-min Rain = 0
KSC1 142210Z 17016KT 34/16 A2987 RMK A01 T03430161  RH  034%=      5-min Rain = 0
KSC1 142211Z 17017G25KT 34/16 A2987 RMK A01 T03430160  RH  034%=      5-min Rain = 0
KSC1 142212Z 16021KT 34/16 A2987 RMK A01 T03420158  RH  033%=      5-min Rain = 0
KSC1 142213Z 16016KT 34/16 A2987 RMK A01 T03400157  RH  033%=      5-min Rain = 0
KSC1 142214Z 18017G24KT 34/16 A2987 RMK A01 T03400158  RH  034%=      5-min Rain = 0
KSC1 142215Z 17018KT 34/16 A2987 RMK A01 T03400161  RH  034%=      5-min Rain = 0
KSC1 142216Z 18017KT 34/16 A2987 RMK A01 T03390161  RH  035%=      5-min Rain = 0
KSC1 142217Z 17015KT 34/16 A2987 RMK A01 T03370158  RH  034%=      5-min Rain = 0
KSC1 142218Z 17015G20KT 34/16 A2987 RMK A01 T03370159  RH  034%=      5-min Rain = 0
KSC1 142219Z 16016G24KT 34/16 A2987 RMK A01 T03390161  RH  035%=      5-min Rain = 0
KSC1 142220Z 18019KT 34/16 A2987 RMK A01 T03400160  RH  034%=      5-min Rain = 0
KSC1 142221Z 19015G20KT 34/16 A2987 RMK A01 T03390161  RH  034%=      5-min Rain = 0
KSC1 142222Z 18015G20KT 34/16 A2987 RMK A01 T03390162  RH  035%=      5-min Rain = 0
KSC1 142223Z 17016KT 34/16 A2987 RMK A01 T03390164  RH  035%=      5-min Rain = 0
KSC1 142224Z 17015G22KT 34/17 A2987 RMK A01 T03410165  RH  035%=      5-min Rain = 0
KSC1 142225Z 17017G22KT 34/16 A2987 RMK A01 T03410162  RH  034%=      5-min Rain = 0
KSC1 142226Z 16015G20KT 34/16 A2987 RMK A01 T03410161  RH  034%=      5-min Rain = 0
KSC1 142227Z 17015KT 34/16 A2987 RMK A01 T03410162  RH  034%=      5-min Rain = 0
KSC1 142228Z 18013KT 34/16 A2987 RMK A01 T03420160  RH  034%=      5-min Rain = 0
KSC1 142229Z 18014KT 34/16 A2987 RMK A01 T03420159  RH  034%=      5-min Rain = 0
KSC1 142230Z 18013KT 34/16 A2987 RMK A01 T03420160  RH  034%=      5-min Rain = 0
KSC1 142231Z 18015G20KT 34/16 A2987 RMK A01 T03420162  RH  034%=      5-min Rain = 0
KSC1 142232Z 19016G24KT 34/16 A2987 RMK A01 T03420164  RH  035%=      5-min Rain = 0
KSC1 142233Z 18020G27KT 34/16 A2986 RMK A01 T03410164  RH  035%=      5-min Rain = 0
KSC1 142234Z 18017G22KT 34/16 A2987 RMK A01 T03390164  RH  035%=      5-min Rain = 0
KSC1 142235Z 17014KT 34/17 A2987 RMK A01 T03380165  RH  036%=      5-min Rain = 0
KSC1 142236Z 16014G19KT 34/17 A2987 RMK A01 T03380165  RH  036%=      5-min Rain = 0
KSC1 142237Z 15017KT 34/17 A2987 RMK A01 T03380165  RH  036%=      5-min Rain = 0
KSC1 142238Z 16018G25KT 34/16 A2987 RMK A01 T03390164  RH  035%=      5-min Rain = 0
KSC1 142239Z 15017KT 34/16 A2987 RMK A01 T03370164  RH  035%=      5-min Rain = 0
KSC1 142240Z 15014G22KT 34/17 A2987 RMK A01 T03360165  RH  036%=      5-min Rain = 0
KSC1 142241Z 16018KT 34/16 A2987 RMK A01 T03380164  RH  035%=      5-min Rain = 0
KSC1 142242Z 16016G21KT 34/17 A2987 RMK A01 T03380165  RH  036%=      5-min Rain = 0
KSC1 142243Z 17015KT 34/17 A2987 RMK A01 T03370166  RH  036%=      5-min Rain = 0
KSC1 142244Z 18015KT 34/17 A2987 RMK A01 T03380166  RH  036%=      5-min Rain = 0
KSC1 142245Z 18017G23KT 34/16 A2987 RMK A01 T03380164  RH  035%=      5-min Rain = 0
KSC1 142246Z 18016KT 34/16 A2987 RMK A01 T03370161  RH  035%=      5-min Rain = 0
KSC1 142247Z 18015G21KT 34/16 A2987 RMK A01 T03360161  RH  035%=      5-min Rain = 0
KSC1 142248Z 18016G21KT 34/16 A2987 RMK A01 T03360159  RH  035%=      5-min Rain = 0
KSC1 142249Z 18017KT 34/16 A2987 RMK A01 T03360158  RH  034%=      5-min Rain = 0
KSC1 142250Z 19017G24KT 34/16 A2987 RMK A01 T03360156  RH  034%=      5-min Rain = 0
KSC1 142251Z 19015G21KT 34/16 A2987 RMK A01 T03350158  RH  035%=      5-min Rain = 0
KSC1 142252Z 18015G20KT 34/15 A2987 RMK A01 T03350154  RH  034%=      5-min Rain = 0
KSC1 142253Z 18013KT 34/15 A2987 RMK A01 T03360152  RH  033%=      5-min Rain = 0
KSC1 142254Z 17013KT 34/16 A2987 RMK A01 T03360155  RH  034%=      5-min Rain = 0
KSC1 142255Z 18012G17KT 34/16 A2987 RMK A01 T03370157  RH  034%=      5-min Rain = 0
KSC1 142256Z 18014KT 34/16 A2986 RMK A01 T03390159  RH  034%=      5-min Rain = 0
KSC1 142257Z 18014KT 34/16 A2986 RMK A01 T03390162  RH  035%=      5-min Rain = 0
KSC1 142258Z 17014KT 34/16 A2986 RMK A01 T03380163  RH  035%=      5-min Rain = 0
KSC1 142259Z 16011KT 34/17 A2986 RMK A01 T03370165  RH  036%=      5-min Rain = 0
KSC1 142300Z 17012G17KT 34/17 A2986 RMK A01 T03390168  RH  036%=      5-min Rain = 0
KSC1 142301Z 17014G19KT 34/17 A2986 RMK A01 T03410168  RH  036%=      5-min Rain = 0
KSC1 142302Z 17015KT 34/17 A2986 RMK A01 T03400166  RH  035%=      5-min Rain = 0
KSC1 142303Z 17015KT 34/16 A2986 RMK A01 T03390164  RH  035%=      5-min Rain = 0
KSC1 142304Z 15014G22KT 34/17 A2986 RMK A01 T03370165  RH  036%=      5-min Rain = 0
KSC1 142305Z 15016KT 34/16 A2986 RMK A01 T03370164  RH  035%=      5-min Rain = 0
KSC1 142306Z 16014G20KT 34/16 A2986 RMK A01 T03370164  RH  036%=      5-min Rain = 0
KSC1 142307Z 17016KT 34/17 A2986 RMK A01 T03360165  RH  036%=      5-min Rain = 0
KSC1 142308Z 17015G22KT 34/16 A2986 RMK A01 T03360164  RH  036%=      5-min Rain = 0
KSC1 142309Z 17016G22KT 34/17 A2986 RMK A01 T03360165  RH  036%=      5-min Rain = 0
KSC1 142310Z 17015KT 34/16 A2986 RMK A01 T03360163  RH  036%=      5-min Rain = 0
KSC1 142311Z 17016KT 34/16 A2986 RMK A01 T03360163  RH  035%=      5-min Rain = 0
KSC1 142312Z 18018KT 34/16 A2986 RMK A01 T03360163  RH  036%=      5-min Rain = 0
KSC1 142313Z 18017KT 33/16 A2986 RMK A01 T03340162  RH  036%=      5-min Rain = 0
KSC1 142314Z 17014G19KT 33/16 A2986 RMK A01 T03320163  RH  036%=      5-min Rain = 0
KSC1 142315Z 18013KT 33/16 A2986 RMK A01 T03320163  RH  036%=      5-min Rain = 0
KSC1 142316Z 17017G22KT 33/16 A2986 RMK A01 T03320160  RH  036%=      5-min Rain = 0
KSC1 142317Z 18012KT 33/16 A2986 RMK A01 T03320160  RH  036%=      5-min Rain = 0
KSC1 142318Z 16015KT 33/16 A2986 RMK A01 T03320160  RH  036%=      5-min Rain = 0
KSC1 142319Z 16016KT 33/16 A2986 RMK A01 T03320161  RH  036%=      5-min Rain = 0
KSC1 142320Z 15015KT 33/16 A2986 RMK A01 T03310161  RH  036%=      5-min Rain = 0
KSC1 142321Z 16015KT 33/16 A2986 RMK A01 T03300162  RH  037%=      5-min Rain = 0
KSC1 142322Z 15012G17KT 33/16 A2986 RMK A01 T03290163  RH  037%=      5-min Rain = 0
KSC1 142323Z 16014G20KT 33/16 A2986 RMK A01 T03290163  RH  037%=      5-min Rain = 0
KSC1 142324Z 15018KT 33/16 A2986 RMK A01 T03290163  RH  037%=      5-min Rain = 0
KSC1 142325Z 17016KT 33/16 A2986 RMK A01 T03280163  RH  037%=      5-min Rain = 0
KSC1 142326Z 17017KT 33/16 A2986 RMK A01 T03260163  RH  038%=      5-min Rain = 0
KSC1 142327Z 16014KT 33/16 A2986 RMK A01 T03260164  RH  038%=      5-min Rain = 0
KSC1 142328Z 15016G22KT 33/16 A2986 RMK A01 T03260164  RH  038%=      5-min Rain = 0
KSC1 142329Z 16015KT 33/16 A2986 RMK A01 T03260163  RH  038%=      5-min Rain = 0
KSC1 142330Z 16014KT 33/16 A2986 RMK A01 T03260163  RH  038%=      5-min Rain = 0
KSC1 142331Z 16015G20KT 33/16 A2986 RMK A01 T03250162  RH  038%=      5-min Rain = 0
KSC1 142332Z 16015KT 32/16 A2985 RMK A01 T03240160  RH  037%=      5-min Rain = 0
KSC1 142333Z 17015G22KT 32/16 A2985 RMK A01 T03240160  RH  037%=      5-min Rain = 0
KSC1 142334Z 17016KT 32/16 A2985 RMK A01 T03240158  RH  037%=      5-min Rain = 0
KSC1 142335Z 17017KT 32/16 A2985 RMK A01 T03240157  RH  037%=      5-min Rain = 0
KSC1 142336Z 18015KT 32/16 A2985 RMK A01 T03230156  RH  037%=      5-min Rain = 0
KSC1 142337Z 17012G17KT 32/16 A2985 RMK A01 T03230156  RH  037%=      5-min Rain = 0
KSC1 142338Z 17014G20KT 32/16 A2985 RMK A01 T03230156  RH  037%=      5-min Rain = 0
KSC1 142339Z 17017KT 32/16 A2985 RMK A01 T03230156  RH  037%=      5-min Rain = 0
KSC1 142340Z 17014G19KT 32/16 A2985 RMK A01 T03230157  RH  037%=      5-min Rain = 0
KSC1 142341Z 17012KT 32/16 A2985 RMK A01 T03230157  RH  037%=      5-min Rain = 0
KSC1 142342Z 17012G19KT 32/16 A2985 RMK A01 T03230160  RH  037%=      5-min Rain = 0
KSC1 142343Z 16012KT 32/16 A2985 RMK A01 T03230161  RH  038%=      5-min Rain = 0
KSC1 142344Z 16014G19KT 32/16 A2985 RMK A01 T03230162  RH  038%=      5-min Rain = 0
KSC1 142345Z 16014KT 32/16 A2985 RMK A01 T03230164  RH  039%=      5-min Rain = 0
KSC1 142346Z 16014KT 32/17 A2985 RMK A01 T03220165  RH  039%=      5-min Rain = 0
KSC1 142347Z 15016G22KT 32/17 A2985 RMK A01 T03210165  RH  039%=      5-min Rain = 0
KSC1 142348Z 16016KT 32/16 A2985 RMK A01 T03200163  RH  039%=      5-min Rain = 0
KSC1 142349Z 16014G20KT 32/16 A2985 RMK A01 T03190163  RH  039%=      5-min Rain = 0
KSC1 142350Z 16017KT 32/16 A2985 RMK A01 T03190163  RH  039%=      5-min Rain = 0
KSC1 142351Z 16015G21KT 32/16 A2985 RMK A01 T03180163  RH  039%=      5-min Rain = 0
KSC1 142352Z 16017G23KT 32/16 A2985 RMK A01 T03180162  RH  039%=      5-min Rain = 0
KSC1 142353Z 16016KT 32/16 A2985 RMK A01 T03180162  RH  039%=      5-min Rain = 0
KSC1 142354Z 16016G21KT 32/16 A2985 RMK A01 T03170161  RH  039%=      5-min Rain = 0
KSC1 142355Z 16016KT 32/16 A2985 RMK A01 T03170162  RH  039%=      5-min Rain = 0
KSC1 142356Z 16013G21KT 32/16 A2985 RMK A01 T03170163  RH  040%=      5-min Rain = 0
KSC1 142357Z 16015G21KT 32/16 A2985 RMK A01 T03170162  RH  039%=      5-min Rain = 0
KSC1 142358Z 16015KT 32/16 A2985 RMK A01 T03170161  RH  039%=      5-min Rain = 0
KSC1 142359Z 16016G22KT 32/16 A2985 RMK A01 T03170162  RH  039%=      5-min Rain = 0
KSC1 150000Z 16017G22KT 32/16 A2985 RMK A01 T03160161  RH  039%=      5-min Rain = 0
KSC1 150001Z 16013KT 32/16 A2985 RMK A01 T03160162  RH  040%=      5-min Rain = 0
KSC1 150002Z 16014G19KT 32/16 A2985 RMK A01 T03160162  RH  040%=      5-min Rain = 0
KSC1 150003Z 16014G19KT 32/16 A2985 RMK A01 T03160162  RH  040%=      5-min Rain = 0
KSC1 150004Z 16017G22KT 32/16 A2985 RMK A01 T03160162  RH  039%=      5-min Rain = 0
KSC1 150005Z 16017G23KT 32/16 A2985 RMK A01 T03160161  RH  039%=      5-min Rain = 0
KSC1 150006Z 16018G23KT 32/16 A2985 RMK A01 T03150161  RH  039%=      5-min Rain = 0
KSC1 150007Z 16014KT 32/16 A2985 RMK A01 T03150161  RH  040%=      5-min Rain = 0
KSC1 150008Z 17016KT 31/16 A2985 RMK A01 T03140161  RH  040%=      5-min Rain = 0
KSC1 150009Z 17017G23KT 31/16 A2985 RMK A01 T03140161  RH  040%=      5-min Rain = 0
KSC1 150010Z 16013G18KT 31/16 A2985 RMK A01 T03140160  RH  040%=      5-min Rain = 0
KSC1 150011Z 16016G22KT 31/16 A2985 RMK A01 T03130161  RH  040%=      5-min Rain = 0
KSC1 150012Z 16019G25KT 31/16 A2985 RMK A01 T03130160  RH  040%=      5-min Rain = 0
KSC1 150013Z 16020KT 31/16 A2985 RMK A01 T03130160  RH  040%=      5-min Rain = 0
KSC1 150014Z 16016G21KT 31/16 A2985 RMK A01 T03120159  RH  040%=      5-min Rain = 0
KSC1 150015Z 16015KT 31/16 A2985 RMK A01 T03120160  RH  040%=      5-min Rain = 0
KSC1 150016Z 16012KT 31/16 A2985 RMK A01 T03120161  RH  040%=      5-min Rain = 0
KSC1 150017Z 17012KT 31/16 A2985 RMK A01 T03120161  RH  040%=      5-min Rain = 0
KSC1 150018Z 17013KT 31/16 A2985 RMK A01 T03110161  RH  040%=      5-min Rain = 0
KSC1 150019Z 17012KT 31/16 A2985 RMK A01 T03110161  RH  040%=      5-min Rain = 0
KSC1 150020Z 17014KT 31/16 A2985 RMK A01 T03100160  RH  040%=      5-min Rain = 0
KSC1 150021Z 16016KT 31/16 A2985 RMK A01 T03100160  RH  040%=      5-min Rain = 0
KSC1 150022Z 17018KT 31/16 A2985 RMK A01 T03090159  RH  040%=      5-min Rain = 0
KSC1 150023Z 16016G21KT 31/16 A2985 RMK A01 T03090159  RH  041%=      5-min Rain = 0
KSC1 150024Z 17011KT 31/16 A2985 RMK A01 T03090160  RH  041%=      5-min Rain = 0
KSC1 150025Z 16014KT 31/16 A2985 RMK A01 T03090160  RH  041%=      5-min Rain = 0
KSC1 150026Z 17013KT 31/16 A2985 RMK A01 T03080160  RH  041%=      5-min Rain = 0
KSC1 150027Z 16013G18KT 31/16 A2985 RMK A01 T03080160  RH  041%=      5-min Rain = 0
KSC1 150028Z 17011KT 31/16 A2985 RMK A01 T03080160  RH  041%=      5-min Rain = 0
KSC1 150029Z 18016KT 31/16 A2985 RMK A01 T03080160  RH  041%=      5-min Rain = 0
KSC1 150030Z 17014KT 31/16 A2985 RMK A01 T03070159  RH  041%=      5-min Rain = 0
KSC1 150031Z 17016KT 31/16 A2985 RMK A01 T03070159  RH  041%=      5-min Rain = 0
KSC1 150032Z 16013KT 31/16 A2985 RMK A01 T03060159  RH  041%=      5-min Rain = 0
KSC1 150033Z 17013KT 31/16 A2985 RMK A01 T03060160  RH  041%=      5-min Rain = 0
KSC1 150034Z 16014KT 31/16 A2985 RMK A01 T03060159  RH  041%=      5-min Rain = 0
KSC1 150035Z 16016G21KT 31/16 A2985 RMK A01 T03060159  RH  041%=      5-min Rain = 0
KSC1 150036Z 16014KT 31/16 A2986 RMK A01 T03060159  RH  041%=      5-min Rain = 0
KSC1 150037Z 16018G23KT 31/16 A2985 RMK A01 T03060159  RH  041%=      5-min Rain = 0
KSC1 150038Z 17013KT 31/16 A2985 RMK A01 T03050158  RH  041%=      5-min Rain = 0
KSC1 150039Z 16014KT 31/16 A2986 RMK A01 T03050159  RH  041%=      5-min Rain = 0
KSC1 150040Z 16014KT 31/16 A2986 RMK A01 T03050159  RH  041%=      5-min Rain = 0
KSC1 150041Z 17016KT 30/16 A2986 RMK A01 T03040159  RH  041%=      5-min Rain = 0
KSC1 150042Z 17018G25KT 30/16 A2986 RMK A01 T03040159  RH  041%=      5-min Rain = 0
KSC1 150043Z 18016G21KT 30/16 A2986 RMK A01 T03040159  RH  041%=      5-min Rain = 0
KSC1 150044Z 17016KT 30/16 A2986 RMK A01 T03040159  RH  042%=      5-min Rain = 0
KSC1 150045Z 17015KT 30/16 A2986 RMK A01 T03030158  RH  042%=      5-min Rain = 0
KSC1 150046Z 16014G19KT 30/16 A2986 RMK A01 T03030159  RH  042%=      5-min Rain = 0
KSC1 150047Z 16012KT 30/16 A2986 RMK A01 T03030159  RH  042%=      5-min Rain = 0
KSC1 150048Z 17013KT 30/16 A2986 RMK A01 T03020158  RH  042%=      5-min Rain = 0
KSC1 150049Z 17014G20KT 30/16 A2986 RMK A01 T03020159  RH  042%=      5-min Rain = 0
KSC1 150050Z 17016KT 30/16 A2986 RMK A01 T03020159  RH  042%=      5-min Rain = 0
KSC1 150051Z 17013G19KT 30/16 A2986 RMK A01 T03020158  RH  042%=      5-min Rain = 0
KSC1 150052Z 16012G17KT 30/16 A2986 RMK A01 T03020158  RH  042%=      5-min Rain = 0
KSC1 150053Z 17015KT 30/16 A2986 RMK A01 T03020158  RH  042%=      5-min Rain = 0
KSC1 150054Z 17016KT 30/16 A2986 RMK A01 T03010158  RH  042%=      5-min Rain = 0
KSC1 150055Z 17014KT 30/16 A2986 RMK A01 T03010157  RH  042%=      5-min Rain = 0
KSC1 150056Z 17010G15KT 30/16 A2986 RMK A01 T03010157  RH  042%=      5-min Rain = 0
KSC1 150057Z 17010KT 30/16 A2986 RMK A01 T03010158  RH  042%=      5-min Rain = 0
KSC1 150058Z 17011KT 30/16 A2986 RMK A01 T03000158  RH  042%=      5-min Rain = 0
KSC1 150059Z 17016G21KT 30/16 A2986 RMK A01 T03000158  RH  042%=      5-min Rain = 0
KSC1 150100Z 17014KT 30/16 A2986 RMK A01 T02990157  RH  042%=      5-min Rain = 0
KSC1 150101Z 16015KT 30/16 A2986 RMK A01 T03000157  RH  042%=      5-min Rain = 0
KSC1 150102Z 17012G17KT 30/16 A2987 RMK A01 T02990157  RH  042%=      5-min Rain = 0
KSC1 150103Z 17014G19KT 30/16 A2986 RMK A01 T02990157  RH  042%=      5-min Rain = 0
KSC1 150104Z 16015G21KT 30/16 A2987 RMK A01 T02990157  RH  042%=      5-min Rain = 0
KSC1 150105Z 17015KT 30/16 A2987 RMK A01 T02990157  RH  042%=      5-min Rain = 0
KSC1 150106Z 16018KT 30/16 A2986 RMK A01 T02980157  RH  042%=      5-min Rain = 0
KSC1 150107Z 17014KT 30/16 A2987 RMK A01 T02980157  RH  042%=      5-min Rain = 0
KSC1 150108Z 17015G20KT 30/16 A2986 RMK A01 T02980158  RH  043%=      5-min Rain = 0
KSC1 150109Z 17016KT 30/16 A2986 RMK A01 T02980157  RH  043%=      5-min Rain = 0
KSC1 150110Z 17015G21KT 30/16 A2986 RMK A01 T02980158  RH  043%=      5-min Rain = 0
KSC1 150111Z 17013G19KT 30/16 A2986 RMK A01 T02970158  RH  043%=      5-min Rain = 0
KSC1 150112Z 17012KT 30/16 A2986 RMK A01 T02970158  RH  043%=      5-min Rain = 0
KSC1 150113Z 16012KT 30/16 A2986 RMK A01 T02970158  RH  043%=      5-min Rain = 0
KSC1 150114Z 17013G20KT 30/16 A2987 RMK A01 T02960158  RH  043%=      5-min Rain = 0
KSC1 150115Z 18016G21KT 30/16 A2986 RMK A01 T02960158  RH  043%=      5-min Rain = 0
KSC1 150116Z 17012G17KT 30/16 A2987 RMK A01 T02950158  RH  043%=      5-min Rain = 0
KSC1 150117Z 16013G18KT 30/16 A2987 RMK A01 T02950159  RH  044%=      5-min Rain = 0
KSC1 150118Z 17016KT 30/16 A2987 RMK A01 T02950159  RH  044%=      5-min Rain = 0
KSC1 150119Z 17015G20KT 30/16 A2987 RMK A01 T02950158  RH  044%=      5-min Rain = 0
KSC1 150120Z 17015G21KT 30/16 A2987 RMK A01 T02950159  RH  044%=      5-min Rain = 0
KSC1 150121Z 17013KT 30/16 A2987 RMK A01 T02950159  RH  044%=      5-min Rain = 0
KSC1 150122Z 17014KT 30/16 A2987 RMK A01 T02950159  RH  044%=      5-min Rain = 0
KSC1 150123Z 16012G17KT 30/16 A2987 RMK A01 T02950159  RH  044%=      5-min Rain = 0
KSC1 150124Z 17013G19KT 30/16 A2987 RMK A01 T02950159  RH  044%=      5-min Rain = 0
KSC1 150125Z 16010G19KT 30/16 A2987 RMK A01 T02950159  RH  044%=      5-min Rain = 0
KSC1 150126Z 16016G22KT 29/16 A2987 RMK A01 T02940159  RH  044%=      5-min Rain = 0
KSC1 150127Z 17011KT 29/16 A2987 RMK A01 T02940159  RH  044%=      5-min Rain = 0
KSC1 150128Z 17014KT 29/16 A2987 RMK A01 T02940159  RH  044%=      5-min Rain = 0
KSC1 150129Z 16012G17KT 29/16 A2986 RMK A01 T02930159  RH  044%=      5-min Rain = 0
KSC1 150130Z 17014G19KT 29/16 A2986 RMK A01 T02930159  RH  044%=      5-min Rain = 0
KSC1 150131Z 16012KT 29/16 A2986 RMK A01 T02930159  RH  044%=      5-min Rain = 0
KSC1 150132Z 16013KT 29/16 A2986 RMK A01 T02920159  RH  044%=      5-min Rain = 0
KSC1 150133Z 16014KT 29/16 A2986 RMK A01 T02920159  RH  044%=      5-min Rain = 0
KSC1 150134Z 16014KT 29/16 A2986 RMK A01 T02920159  RH  045%=      5-min Rain = 0
KSC1 150135Z 16011KT 29/16 A2986 RMK A01 T02910159  RH  045%=      5-min Rain = 0
KSC1 150136Z 16013G21KT 29/16 A2986 RMK A01 T02920159  RH  045%=      5-min Rain = 0
KSC1 150137Z 16014KT 29/16 A2986 RMK A01 T02920159  RH  045%=      5-min Rain = 0
KSC1 150138Z 17013KT 29/16 A2986 RMK A01 T02910159  RH  045%=      5-min Rain = 0
KSC1 150139Z 17013KT 29/16 A2986 RMK A01 T02910159  RH  045%=      5-min Rain = 0
KSC1 150140Z 17011KT 29/16 A2986 RMK A01 T02910159  RH  045%=      5-min Rain = 0
KSC1 150141Z 17011KT 29/16 A2986 RMK A01 T02900159  RH  045%=      5-min Rain = 0
KSC1 150142Z 16014G19KT 29/16 A2986 RMK A01 T02900159  RH  045%=      5-min Rain = 0
KSC1 150143Z 16014KT 29/16 A2986 RMK A01 T02900159  RH  045%=      5-min Rain = 0
KSC1 150144Z 16014G19KT 29/16 A2986 RMK A01 T02900159  RH  045%=      5-min Rain = 0
KSC1 150145Z 17013KT 29/16 A2986 RMK A01 T02900159  RH  045%=      5-min Rain = 0
KSC1 150146Z 16014KT 29/16 A2986 RMK A01 T02900159  RH  045%=      5-min Rain = 0
KSC1 150147Z 16014KT 29/16 A2986 RMK A01 T02900159  RH  045%=      5-min Rain = 0
KSC1 150148Z 17016KT 29/16 A2986 RMK A01 T02900159  RH  045%=      5-min Rain = 0
KSC1 150149Z 16015KT 29/16 A2986 RMK A01 T02900159  RH  045%=      5-min Rain = 0
KSC1 150150Z 16014G22KT 29/16 A2987 RMK A01 T02900159  RH  045%=      5-min Rain = 0
KSC1 150151Z 16012KT 29/16 A2986 RMK A01 T02890158  RH  045%=      5-min Rain = 0
KSC1 150152Z 16012G17KT 29/16 A2987 RMK A01 T02890159  RH  045%=      5-min Rain = 0
KSC1 150153Z 16013G18KT 29/16 A2986 RMK A01 T02880159  RH  045%=      5-min Rain = 0
KSC1 150154Z 16014KT 29/16 A2986 RMK A01 T02880159  RH  045%=      5-min Rain = 0
KSC1 150155Z 16016KT 29/16 A2986 RMK A01 T02880159  RH  045%=      5-min Rain = 0
KSC1 150156Z 16015KT 29/16 A2986 RMK A01 T02880158  RH  045%=      5-min Rain = 0
KSC1 150157Z 17012KT 29/16 A2986 RMK A01 T02880158  RH  045%=      5-min Rain = 0
KSC1 150158Z 16012KT 29/16 A2986 RMK A01 T02880158  RH  045%=      5-min Rain = 0
KSC1 150159Z 16011KT 29/16 A2986 RMK A01 T02870159  RH  046%=      5-min Rain = 0
KSC1 150200Z 16014KT 29/16 A2986 RMK A01 T02870159  RH  046%=      5-min Rain = 0
KSC1 150201Z 17012KT 29/16 A2986 RMK A01 T02870158  RH  046%=      5-min Rain = 0
KSC1 150202Z 16011G16KT 29/16 A2986 RMK A01 T02860158  RH  046%=      5-min Rain = 0
KSC1 150203Z 17013G18KT 29/16 A2986 RMK A01 T02860158  RH  046%=      5-min Rain = 0
KSC1 150204Z 16014KT 29/16 A2987 RMK A01 T02860158  RH  046%=      5-min Rain = 0
KSC1 150205Z 17015KT 29/16 A2987 RMK A01 T02860158  RH  046%=      5-min Rain = 0
KSC1 150206Z 16014KT 29/16 A2987 RMK A01 T02860158  RH  046%=      5-min Rain = 0
KSC1 150207Z 17014G19KT 29/16 A2987 RMK A01 T02860158  RH  046%=      5-min Rain = 0
KSC1 150208Z 16012G19KT 29/16 A2987 RMK A01 T02860158  RH  046%=      5-min Rain = 0
KSC1 150209Z 17014G19KT 29/16 A2987 RMK A01 T02860158  RH  046%=      5-min Rain = 0
KSC1 150210Z 16012KT 29/16 A2987 RMK A01 T02860158  RH  046%=      5-min Rain = 0
KSC1 150211Z 16010G15KT 29/16 A2987 RMK A01 T02860158  RH  046%=      5-min Rain = 0
KSC1 150212Z 17009KT 29/16 A2987 RMK A01 T02850158  RH  046%=      5-min Rain = 0
KSC1 150213Z 17012G17KT 28/16 A2987 RMK A01 T02840159  RH  047%=      5-min Rain = 0
KSC1 150214Z 16016KT 28/16 A2987 RMK A01 T02840158  RH  047%=      5-min Rain = 0
KSC1 150215Z 17012KT 28/16 A2987 RMK A01 T02840159  RH  047%=      5-min Rain = 0
KSC1 150216Z 16013G18KT 28/16 A2987 RMK A01 T02840158  RH  047%=      5-min Rain = 0
KSC1 150217Z 16011KT 28/16 A2987 RMK A01 T02840159  RH  047%=      5-min Rain = 0
KSC1 150218Z 16014KT 28/16 A2987 RMK A01 T02830158  RH  047%=      5-min Rain = 0
KSC1 150219Z 16012KT 28/16 A2987 RMK A01 T02830159  RH  047%=      5-min Rain = 0
KSC1 150220Z 17015G20KT 28/16 A2986 RMK A01 T02830159  RH  047%=      5-min Rain = 0
KSC1 150221Z 16013KT 28/16 A2986 RMK A01 T02830159  RH  047%=      5-min Rain = 0
KSC1 150222Z 16013KT 28/16 A2986 RMK A01 T02830159  RH  047%=      5-min Rain = 0
KSC1 150223Z 17011KT 28/16 A2986 RMK A01 T02830159  RH  047%=      5-min Rain = 0
KSC1 150224Z 16012KT 28/16 A2986 RMK A01 T02830159  RH  047%=      5-min Rain = 0
KSC1 150225Z 16011KT 28/16 A2986 RMK A01 T02820159  RH  047%=      5-min Rain = 0
KSC1 150226Z 16015KT 28/16 A2986 RMK A01 T02820159  RH  047%=      5-min Rain = 0
KSC1 150227Z 16012KT 28/16 A2986 RMK A01 T02820159  RH  047%=      5-min Rain = 0
KSC1 150228Z 16011KT 28/16 A2986 RMK A01 T02820159  RH  047%=      5-min Rain = 0
KSC1 150229Z 16013KT 28/16 A2986 RMK A01 T02810159  RH  047%=      5-min Rain = 0
KSC1 150230Z 16013KT 28/16 A2986 RMK A01 T02810159  RH  048%=      5-min Rain = 0
KSC1 150231Z 16013G18KT 28/16 A2986 RMK A01 T02810160  RH  048%=      5-min Rain = 0
KSC1 150232Z 16014KT 28/16 A2986 RMK A01 T02810160  RH  048%=      5-min Rain = 0
KSC1 150233Z 16013G18KT 28/16 A2986 RMK A01 T02810160  RH  048%=      5-min Rain = 0
KSC1 150234Z 16011KT 28/16 A2986 RMK A01 T02810160  RH  048%=      5-min Rain = 0
KSC1 150235Z 16012KT 28/16 A2986 RMK A01 T02800160  RH  048%=      5-min Rain = 0
KSC1 150236Z 16012G17KT 28/16 A2986 RMK A01 T02800160  RH  048%=      5-min Rain = 0
KSC1 150237Z 16014KT 28/16 A2986 RMK A01 T02800161  RH  048%=      5-min Rain = 0
KSC1 150238Z 16014G19KT 28/16 A2986 RMK A01 T02800160  RH  048%=      5-min Rain = 0
KSC1 150239Z 16014G20KT 28/16 A2986 RMK A01 T02800160  RH  048%=      5-min Rain = 0
KSC1 150240Z 17013KT 28/16 A2986 RMK A01 T02800161  RH  048%=      5-min Rain = 0
KSC1 150241Z 16014G20KT 28/16 A2986 RMK A01 T02800160  RH  048%=      5-min Rain = 0
KSC1 150242Z 17012KT 28/16 A2986 RMK A01 T02800161  RH  048%=      5-min Rain = 0
KSC1 150243Z 16012KT 28/16 A2986 RMK A01 T02800161  RH  048%=      5-min Rain = 0
KSC1 150244Z 16013KT 28/16 A2986 RMK A01 T02800161  RH  048%=      5-min Rain = 0
KSC1 150245Z 17010G17KT 28/16 A2986 RMK A01 T02790161  RH  049%=      5-min Rain = 0
KSC1 150246Z 16013KT 28/16 A2986 RMK A01 T02790161  RH  049%=      5-min Rain = 0
KSC1 150247Z 16016KT 28/16 A2986 RMK A01 T02790162  RH  049%=      5-min Rain = 0
KSC1 150248Z 16013G18KT 28/16 A2986 RMK A01 T02790161  RH  049%=      5-min Rain = 0
KSC1 150249Z 17010KT 28/16 A2986 RMK A01 T02790161  RH  049%=      5-min Rain = 0
KSC1 150250Z 16011KT 28/16 A2986 RMK A01 T02790162  RH  049%=      5-min Rain = 0
KSC1 150251Z 16014KT 28/16 A2986 RMK A01 T02790162  RH  049%=      5-min Rain = 0
KSC1 150252Z 17012KT 28/16 A2986 RMK A01 T02780162  RH  049%=      5-min Rain = 0
KSC1 150253Z 17012G19KT 28/16 A2986 RMK A01 T02780162  RH  049%=      5-min Rain = 0
KSC1 150254Z 16010KT 28/16 A2986 RMK A01 T02780162  RH  049%=      5-min Rain = 0
KSC1 150255Z 16011KT 28/16 A2987 RMK A01 T02780162  RH  049%=      5-min Rain = 0
KSC1 150256Z 16013G19KT 28/16 A2987 RMK A01 T02780162  RH  049%=      5-min Rain = 0
KSC1 150257Z 17010KT 28/16 A2987 RMK A01 T02780162  RH  049%=      5-min Rain = 0
KSC1 150258Z 17010KT 28/16 A2987 RMK A01 T02770162  RH  049%=      5-min Rain = 0
KSC1 150259Z 17014G19KT 28/16 A2987 RMK A01 T02770162  RH  049%=      5-min Rain = 0
KSC1 150300Z 16012G17KT 28/16 A2987 RMK A01 T02770162  RH  050%=      5-min Rain = 0
KSC1 150301Z 17010KT 28/16 A2987 RMK A01 T02770162  RH  050%=      5-min Rain = 0
KSC1 150302Z 17010KT 28/16 A2987 RMK A01 T02770162  RH  050%=      5-min Rain = 0
KSC1 150303Z 16012KT 28/16 A2987 RMK A01 T02760162  RH  050%=      5-min Rain = 0
KSC1 150304Z 16012KT 28/16 A2987 RMK A01 T02760162  RH  050%=      5-min Rain = 0
KSC1 150305Z 16012KT 28/16 A2987 RMK A01 T02760162  RH  050%=      5-min Rain = 0
KSC1 150306Z 16012G17KT 28/16 A2987 RMK A01 T02760162  RH  050%=      5-min Rain = 0
KSC1 150307Z 16014KT 28/16 A2987 RMK A01 T02760162  RH  050%=      5-min Rain = 0
KSC1 150308Z 16013KT 28/16 A2987 RMK A01 T02760161  RH  050%=      5-min Rain = 0
KSC1 150309Z 17014G19KT 28/16 A2987 RMK A01 T02760161  RH  050%=      5-min Rain = 0
KSC1 150310Z 16012G17KT 28/16 A2987 RMK A01 T02760161  RH  050%=      5-min Rain = 0
KSC1 150311Z 16012KT 28/16 A2987 RMK A01 T02760161  RH  050%=      5-min Rain = 0
KSC1 150312Z 16013G18KT 28/16 A2987 RMK A01 T02760161  RH  050%=      5-min Rain = 0
KSC1 150313Z 17012KT 28/16 A2987 RMK A01 T02760161  RH  049%=      5-min Rain = 0
KSC1 150314Z 16011KT 28/16 A2987 RMK A01 T02760161  RH  049%=      5-min Rain = 0
KSC1 150315Z 16013KT 28/16 A2987 RMK A01 T02760161  RH  050%=      5-min Rain = 0
KSC1 150316Z 16012KT 28/16 A2987 RMK A01 T02750161  RH  050%=      5-min Rain = 0
KSC1 150317Z 17015KT 28/16 A2987 RMK A01 T02750161  RH  050%=      5-min Rain = 0
KSC1 150318Z 16015KT 28/16 A2987 RMK A01 T02760161  RH  050%=      5-min Rain = 0
KSC1 150319Z 16011G16KT 28/16 A2987 RMK A01 T02760160  RH  049%=      5-min Rain = 0
KSC1 150320Z 17013KT 28/16 A2987 RMK A01 T02750160  RH  049%=      5-min Rain = 0
KSC1 150321Z 16011G16KT 28/16 A2987 RMK A01 T02750160  RH  049%=      5-min Rain = 0
KSC1 150322Z 16012KT 28/16 A2987 RMK A01 T02750160  RH  049%=      5-min Rain = 0
KSC1 150323Z 17015G21KT 28/16 A2987 RMK A01 T02750160  RH  049%=      5-min Rain = 0
KSC1 150324Z 16013G18KT 28/16 A2987 RMK A01 T02750159  RH  049%=      5-min Rain = 0
KSC1 150325Z 16015KT 28/16 A2987 RMK A01 T02750159  RH  049%=      5-min Rain = 0
KSC1 150326Z 16012KT 28/16 A2988 RMK A01 T02760159  RH  049%=      5-min Rain = 0
KSC1 150327Z 16010KT 28/16 A2988 RMK A01 T02750159  RH  049%=      5-min Rain = 0
KSC1 150328Z 17013KT 27/16 A2988 RMK A01 T02740159  RH  049%=      5-min Rain = 0
KSC1 150329Z 16012KT 27/16 A2988 RMK A01 T02740158  RH  049%=      5-min Rain = 0
KSC1 150330Z 16011KT 27/16 A2988 RMK A01 T02740158  RH  049%=      5-min Rain = 0
KSC1 150331Z 16010G15KT 27/16 A2988 RMK A01 T02740158  RH  049%=      5-min Rain = 0
KSC1 150332Z 16011KT 27/16 A2988 RMK A01 T02740158  RH  049%=      5-min Rain = 0
KSC1 150333Z 16011KT 27/16 A2987 RMK A01 T02740158  RH  049%=      5-min Rain = 0
KSC1 150334Z 16011KT 27/16 A2988 RMK A01 T02740158  RH  049%=      5-min Rain = 0
KSC1 150335Z 16012KT 27/16 A2987 RMK A01 T02730158  RH  049%=      5-min Rain = 0
KSC1 150336Z 16011KT 27/16 A2988 RMK A01 T02730157  RH  049%=      5-min Rain = 0
KSC1 150337Z 16010KT 27/16 A2988 RMK A01 T02730157  RH  049%=      5-min Rain = 0
KSC1 150338Z 16011KT 27/16 A2988 RMK A01 T02730157  RH  049%=      5-min Rain = 0
KSC1 150339Z 16011KT 27/16 A2988 RMK A01 T02720157  RH  049%=      5-min Rain = 0
KSC1 150340Z 16011KT 27/16 A2988 RMK A01 T02720157  RH  049%=      5-min Rain = 0
KSC1 150341Z 16010KT 27/16 A2988 RMK A01 T02720157  RH  049%=      5-min Rain = 0
KSC1 150342Z 17009G15KT 27/16 A2988 RMK A01 T02720157  RH  049%=      5-min Rain = 0
KSC1 150343Z 16011KT 27/16 A2988 RMK A01 T02710157  RH  049%=      5-min Rain = 0
KSC1 150344Z 16011G16KT 27/16 A2988 RMK A01 T02710156  RH  049%=      5-min Rain = 0
KSC1 150345Z 16011KT 27/16 A2988 RMK A01 T02710156  RH  049%=      5-min Rain = 0
KSC1 150346Z 16009KT 27/16 A2988 RMK A01 T02710156  RH  049%=      5-min Rain = 0
KSC1 150347Z 16010KT 27/16 A2988 RMK A01 T02710156  RH  049%=      5-min Rain = 0
KSC1 150348Z 15011KT 27/16 A2988 RMK A01 T02710156  RH  049%=      5-min Rain = 0
KSC1 150349Z 15011KT 27/16 A2988 RMK A01 T02700155  RH  049%=      5-min Rain = 0
KSC1 150350Z 16012KT 27/16 A2988 RMK A01 T02710155  RH  049%=      5-min Rain = 0
KSC1 150351Z 15010KT 27/16 A2988 RMK A01 T02710155  RH  049%=      5-min Rain = 0
KSC1 150352Z 15009KT 27/16 A2988 RMK A01 T02710155  RH  049%=      5-min Rain = 0
KSC1 150353Z 15010KT 27/16 A2988 RMK A01 T02710156  RH  049%=      5-min Rain = 0
KSC1 150354Z 16009KT 27/16 A2988 RMK A01 T02700155  RH  049%=      5-min Rain = 0
KSC1 150355Z 15010KT 27/16 A2988 RMK A01 T02700155  RH  049%=      5-min Rain = 0
KSC1 150356Z 15010KT 27/16 A2988 RMK A01 T02700155  RH  049%=      5-min Rain = 0
KSC1 150357Z 15010KT 27/16 A2988 RMK A01 T02700155  RH  049%=      5-min Rain = 0
KSC1 150358Z 15009G14KT 27/16 A2988 RMK A01 T02700155  RH  049%=      5-min Rain = 0
KSC1 150359Z 15012KT 27/16 A2988 RMK A01 T02690155  RH  049%=      5-min Rain = 0
KSC1 150400Z 16010G15KT 27/16 A2988 RMK A01 T02690155  RH  049%=      5-min Rain = 0
KSC1 150401Z 14010KT 27/16 A2988 RMK A01 T02690155  RH  049%=      5-min Rain = 0
KSC1 150402Z 15010KT 27/16 A2988 RMK A01 T02690155  RH  049%=      5-min Rain = 0
KSC1 150403Z 15011KT 27/16 A2988 RMK A01 T02700155  RH  049%=      5-min Rain = 0
KSC1 150404Z 15011KT 27/16 A2988 RMK A01 T02690155  RH  049%=      5-min Rain = 0
KSC1 150405Z 15010KT 27/15 A2988 RMK A01 T02690154  RH  049%=      5-min Rain = 0
KSC1 150406Z 15009KT 27/15 A2988 RMK A01 T02690154  RH  049%=      5-min Rain = 0
KSC1 150407Z 15010KT 27/15 A2988 RMK A01 T02690154  RH  049%=      5-min Rain = 0
KSC1 150408Z 15010KT 27/16 A2988 RMK A01 T02690155  RH  049%=      5-min Rain = 0
KSC1 150409Z 15009KT 27/15 A2988 RMK A01 T02680154  RH  050%=      5-min Rain = 0
KSC1 150410Z 15009KT 27/15 A2988 RMK A01 T02680154  RH  050%=      5-min Rain = 0
KSC1 150411Z 15008KT 27/15 A2988 RMK A01 T02680154  RH  050%=      5-min Rain = 0
KSC1 150412Z 15009G14KT 27/15 A2989 RMK A01 T02680154  RH  050%=      5-min Rain = 0
KSC1 150413Z 15008KT 27/15 A2989 RMK A01 T02680154  RH  050%=      5-min Rain = 0
KSC1 150414Z 15008KT 27/15 A2989 RMK A01 T02670154  RH  050%=      5-min Rain = 0
KSC1 150415Z 15009KT 27/15 A2989 RMK A01 T02670154  RH  050%=      5-min Rain = 0
KSC1 150416Z 15009KT 27/15 A2989 RMK A01 T02670154  RH  050%=      5-min Rain = 0
KSC1 150417Z 15009KT 27/15 A2989 RMK A01 T02660154  RH  050%=      5-min Rain = 0
KSC1 150418Z 15009KT 27/15 A2989 RMK A01 T02660154  RH  050%=      5-min Rain = 0
KSC1 150419Z 15009KT 27/15 A2989 RMK A01 T02660153  RH  050%=      5-min Rain = 0
KSC1 150420Z 15010KT 27/15 A2989 RMK A01 T02660154  RH  050%=      5-min Rain = 0
KSC1 150421Z 15009KT 27/15 A2989 RMK A01 T02660153  RH  050%=      5-min Rain = 0
KSC1 150422Z 15010KT 27/15 A2989 RMK A01 T02660153  RH  050%=      5-min Rain = 0
KSC1 150423Z 15007KT 27/15 A2989 RMK A01 T02660153  RH  050%=      5-min Rain = 0
KSC1 150424Z 15007KT 27/15 A2989 RMK A01 T02660153  RH  050%=      5-min Rain = 0
KSC1 150425Z 15008KT 27/15 A2989 RMK A01 T02650153  RH  050%=      5-min Rain = 0
KSC1 150426Z 15008KT 26/15 A2989 RMK A01 T02640153  RH  050%=      5-min Rain = 0
KSC1 150427Z 15008KT 26/15 A2989 RMK A01 T02640153  RH  050%=      5-min Rain = 0
KSC1 150428Z 16009KT 26/15 A2989 RMK A01 T02640153  RH  050%=      5-min Rain = 0
KSC1 150429Z 15008KT 26/15 A2989 RMK A01 T02640153  RH  050%=      5-min Rain = 0
KSC1 150430Z 15007KT 26/15 A2989 RMK A01 T02630152  RH  050%=      5-min Rain = 0
KSC1 150431Z 15008KT 26/15 A2989 RMK A01 T02630152  RH  050%=      5-min Rain = 0
KSC1 150432Z 15007KT 26/15 A2989 RMK A01 T02630152  RH  051%=      5-min Rain = 0
KSC1 150433Z 15009KT 26/15 A2989 RMK A01 T02620152  RH  051%=      5-min Rain = 0
KSC1 150434Z 15009KT 26/15 A2989 RMK A01 T02620152  RH  050%=      5-min Rain = 0
KSC1 150435Z 15009KT 26/15 A2989 RMK A01 T02630151  RH  050%=      5-min Rain = 0
KSC1 150436Z 15008KT 26/15 A2989 RMK A01 T02630151  RH  050%=      5-min Rain = 0
KSC1 150437Z 15010KT 26/15 A2989 RMK A01 T02630151  RH  050%=      5-min Rain = 0
KSC1 150438Z 15008KT 26/15 A2989 RMK A01 T02630151  RH  050%=      5-min Rain = 0
KSC1 150439Z 15009KT 26/15 A2989 RMK A01 T02640151  RH  050%=      5-min Rain = 0
KSC1 150440Z 15008KT 26/15 A2989 RMK A01 T02640151  RH  050%=      5-min Rain = 0
KSC1 150441Z 15009KT 26/15 A2989 RMK A01 T02640151  RH  050%=      5-min Rain = 0
KSC1 150442Z 15008KT 26/15 A299 RMK A01 T02640151  RH  050%=      5-min Rain = 0
KSC1 150443Z 15009KT 26/15 A299 RMK A01 T02640151  RH  050%=      5-min Rain = 0
KSC1 150444Z 15009KT 26/15 A299 RMK A01 T02640151  RH  050%=      5-min Rain = 0
KSC1 150445Z 15007KT 26/15 A299 RMK A01 T02640151  RH  050%=      5-min Rain = 0
KSC1 150446Z 15007KT 26/15 A299 RMK A01 T02630151  RH  050%=      5-min Rain = 0
KSC1 150447Z 15008KT 26/15 A299 RMK A01 T02630150  RH  050%=      5-min Rain = 0
KSC1 150448Z 16008KT 26/15 A299 RMK A01 T02620150  RH  050%=      5-min Rain = 0
KSC1 150449Z 16009KT 26/15 A299 RMK A01 T02620150  RH  050%=      5-min Rain = 0
KSC1 150450Z 16008KT 26/15 A299 RMK A01 T02620151  RH  050%=      5-min Rain = 0
KSC1 150451Z 16010KT 26/15 A299 RMK A01 T02620151  RH  050%=      5-min Rain = 0
KSC1 150452Z 16007KT 26/15 A299 RMK A01 T02620150  RH  050%=      5-min Rain = 0
KSC1 150453Z 16007KT 26/15 A2991 RMK A01 T02620151  RH  050%=      5-min Rain = 0
KSC1 150454Z 16007KT 26/15 A2991 RMK A01 T02610150  RH  051%=      5-min Rain = 0
KSC1 150455Z 16008KT 26/15 A2991 RMK A01 T02610151  RH  051%=      5-min Rain = 0
KSC1 150456Z 16008KT 26/15 A2991 RMK A01 T02600151  RH  051%=      5-min Rain = 0
KSC1 150457Z 15007KT 26/15 A2991 RMK A01 T02600151  RH  051%=      5-min Rain = 0
KSC1 150458Z 16008KT 26/15 A2991 RMK A01 T02600151  RH  051%=      5-min Rain = 0
KSC1 150459Z 15007KT 26/15 A2991 RMK A01 T02600151  RH  051%=      5-min Rain = 0

Page generated in 0.0707 seconds.